<?xml version="1.0" encoding="UTF-8" standalone="no" ?>
<gpx xmlns="http://www.topografix.com/GPX/1/1" xmlns:xsi="http://www.w3.org/2001/XMLSchema-instance" xsi:schemaLocation="http://www.topografix.com/GPX/1/1 http://www.topografix.com/GPX/1/1/gpx.xsd" version="1.1" creator="VisuGPX - https://www.visugpx.com">
  <metadata>
    <name>Balade autour du canal de la Sarre</name>
    <desc><![CDATA[balade canal sarre
]]></desc>
  </metadata>
  <trk>
    <name><![CDATA[2013-07-06 17:02]]></name>
    <desc><![CDATA[<h1>OruxMaps</h1><br /><hr align="center" width="480" style="height: 2px; width: 517px"/><h2>Nom: 2013-07-06 17:02</h2><br /><p>Temps de départ: 07/06/2013 17:02</p><p>Temps d'arrivée: 07/06/2013 18:11</p><p>Distance: 24,9 km (01:09)</p><p>Temps déplacement: 01:05</p><p>Vitesse moyenne: 21,5 km/h</p><p>Vitesse moyenne: 22,8 km/h</p><p>Vitess Max.: 37,6 km/h</p><p>Altitude minimale: 208 m</p><p>Altitude maximale: 250 m</p><p>Vitesse d'élévation: 653,1 m/h</p><p>Vitesse de descente: -790,1 m/h</p><p>Gain Altitude: 149 m</p><p>Perte Altitude: -167 m</p><p>Temps d'élévation: 00:13</p><p>Temps de descente: 00:12</p><hr align="center" width="480" style="height: 2px; width: 517px"/>]]></desc>
    <trkseg>
      <trkpt lat="49.11273" lon="7.09025">
        <ele>238.88</ele>
        <time>2013-07-06T15:02:28Z</time>
      </trkpt>
      <trkpt lat="49.11291" lon="7.09013">
        <ele>222.5</ele>
        <time>2013-07-06T15:03:49Z</time>
      </trkpt>
      <trkpt lat="49.11309" lon="7.09009">
        <ele>219.73</ele>
        <time>2013-07-06T15:04:30Z</time>
      </trkpt>
      <trkpt lat="49.11323" lon="7.09036">
        <ele>220.3</ele>
        <time>2013-07-06T15:04:35Z</time>
      </trkpt>
      <trkpt lat="49.11335" lon="7.09058">
        <ele>220.43</ele>
        <time>2013-07-06T15:04:39Z</time>
      </trkpt>
      <trkpt lat="49.11348" lon="7.09079">
        <ele>220.84</ele>
        <time>2013-07-06T15:04:43Z</time>
      </trkpt>
      <trkpt lat="49.11357" lon="7.09106">
        <ele>221.23</ele>
        <time>2013-07-06T15:04:47Z</time>
      </trkpt>
      <trkpt lat="49.11374" lon="7.0912">
        <ele>221.48</ele>
        <time>2013-07-06T15:04:51Z</time>
      </trkpt>
      <trkpt lat="49.11392" lon="7.09135">
        <ele>221.8</ele>
        <time>2013-07-06T15:04:55Z</time>
      </trkpt>
      <trkpt lat="49.11411" lon="7.09155">
        <ele>221.94</ele>
        <time>2013-07-06T15:04:59Z</time>
      </trkpt>
      <trkpt lat="49.11427" lon="7.09173">
        <ele>222.45</ele>
        <time>2013-07-06T15:05:03Z</time>
      </trkpt>
      <trkpt lat="49.11442" lon="7.09191">
        <ele>223.42</ele>
        <time>2013-07-06T15:05:07Z</time>
      </trkpt>
      <trkpt lat="49.11455" lon="7.09218">
        <ele>223.69</ele>
        <time>2013-07-06T15:05:12Z</time>
      </trkpt>
      <trkpt lat="49.11454" lon="7.09248">
        <ele>223.23</ele>
        <time>2013-07-06T15:05:16Z</time>
      </trkpt>
      <trkpt lat="49.11445" lon="7.09276">
        <ele>223.33</ele>
        <time>2013-07-06T15:05:20Z</time>
      </trkpt>
      <trkpt lat="49.11427" lon="7.09292">
        <ele>223.31</ele>
        <time>2013-07-06T15:05:24Z</time>
      </trkpt>
      <trkpt lat="49.11409" lon="7.0931">
        <ele>223.06</ele>
        <time>2013-07-06T15:05:29Z</time>
      </trkpt>
      <trkpt lat="49.11399" lon="7.09338">
        <ele>223.01</ele>
        <time>2013-07-06T15:05:33Z</time>
      </trkpt>
      <trkpt lat="49.11391" lon="7.09367">
        <ele>223.12</ele>
        <time>2013-07-06T15:05:37Z</time>
      </trkpt>
      <trkpt lat="49.11383" lon="7.09397">
        <ele>223.23</ele>
        <time>2013-07-06T15:05:41Z</time>
      </trkpt>
      <trkpt lat="49.11374" lon="7.09426">
        <ele>223.43</ele>
        <time>2013-07-06T15:05:45Z</time>
      </trkpt>
      <trkpt lat="49.11366" lon="7.09457">
        <ele>223.56</ele>
        <time>2013-07-06T15:05:49Z</time>
      </trkpt>
      <trkpt lat="49.1136" lon="7.0949">
        <ele>223.64</ele>
        <time>2013-07-06T15:05:53Z</time>
      </trkpt>
      <trkpt lat="49.11358" lon="7.0952">
        <ele>223.89</ele>
        <time>2013-07-06T15:05:57Z</time>
      </trkpt>
      <trkpt lat="49.11356" lon="7.09548">
        <ele>224.35</ele>
        <time>2013-07-06T15:06:01Z</time>
      </trkpt>
      <trkpt lat="49.11352" lon="7.09575">
        <ele>224.87</ele>
        <time>2013-07-06T15:06:05Z</time>
      </trkpt>
      <trkpt lat="49.1135" lon="7.09602">
        <ele>225.47</ele>
        <time>2013-07-06T15:06:09Z</time>
      </trkpt>
      <trkpt lat="49.11348" lon="7.0963">
        <ele>226.12</ele>
        <time>2013-07-06T15:06:12Z</time>
      </trkpt>
      <trkpt lat="49.11352" lon="7.09663">
        <ele>227.57</ele>
        <time>2013-07-06T15:06:17Z</time>
      </trkpt>
      <trkpt lat="49.11358" lon="7.09694">
        <ele>230.08</ele>
        <time>2013-07-06T15:06:22Z</time>
      </trkpt>
      <trkpt lat="49.11364" lon="7.09724">
        <ele>232.38</ele>
        <time>2013-07-06T15:06:27Z</time>
      </trkpt>
      <trkpt lat="49.11375" lon="7.09752">
        <ele>234.15</ele>
        <time>2013-07-06T15:06:32Z</time>
      </trkpt>
      <trkpt lat="49.11391" lon="7.09776">
        <ele>235.35</ele>
        <time>2013-07-06T15:06:37Z</time>
      </trkpt>
      <trkpt lat="49.11408" lon="7.09794">
        <ele>236.52</ele>
        <time>2013-07-06T15:06:42Z</time>
      </trkpt>
      <trkpt lat="49.11424" lon="7.09814">
        <ele>237.47</ele>
        <time>2013-07-06T15:06:47Z</time>
      </trkpt>
      <trkpt lat="49.1142" lon="7.09845">
        <ele>238.84</ele>
        <time>2013-07-06T15:06:53Z</time>
      </trkpt>
      <trkpt lat="49.11398" lon="7.09842">
        <ele>240.25</ele>
        <time>2013-07-06T15:06:59Z</time>
      </trkpt>
      <trkpt lat="49.11378" lon="7.09834">
        <ele>240.88</ele>
        <time>2013-07-06T15:07:04Z</time>
      </trkpt>
      <trkpt lat="49.1136" lon="7.09828">
        <ele>241.36</ele>
        <time>2013-07-06T15:07:10Z</time>
      </trkpt>
      <trkpt lat="49.11346" lon="7.0985">
        <ele>241.62</ele>
        <time>2013-07-06T15:07:44Z</time>
      </trkpt>
      <trkpt lat="49.1134" lon="7.0988">
        <ele>242</ele>
        <time>2013-07-06T15:07:49Z</time>
      </trkpt>
      <trkpt lat="49.1133" lon="7.09909">
        <ele>242.15</ele>
        <time>2013-07-06T15:07:54Z</time>
      </trkpt>
      <trkpt lat="49.11312" lon="7.0992">
        <ele>242.17</ele>
        <time>2013-07-06T15:07:58Z</time>
      </trkpt>
      <trkpt lat="49.11292" lon="7.0993">
        <ele>242.18</ele>
        <time>2013-07-06T15:08:02Z</time>
      </trkpt>
      <trkpt lat="49.11271" lon="7.0994">
        <ele>242.03</ele>
        <time>2013-07-06T15:08:06Z</time>
      </trkpt>
      <trkpt lat="49.1125" lon="7.09953">
        <ele>242.11</ele>
        <time>2013-07-06T15:08:10Z</time>
      </trkpt>
      <trkpt lat="49.11229" lon="7.09969">
        <ele>242.23</ele>
        <time>2013-07-06T15:08:14Z</time>
      </trkpt>
      <trkpt lat="49.11208" lon="7.09985">
        <ele>242.2</ele>
        <time>2013-07-06T15:08:18Z</time>
      </trkpt>
      <trkpt lat="49.11187" lon="7.09997">
        <ele>242.08</ele>
        <time>2013-07-06T15:08:22Z</time>
      </trkpt>
      <trkpt lat="49.11165" lon="7.10011">
        <ele>241.79</ele>
        <time>2013-07-06T15:08:26Z</time>
      </trkpt>
      <trkpt lat="49.11146" lon="7.10025">
        <ele>241.74</ele>
        <time>2013-07-06T15:08:30Z</time>
      </trkpt>
      <trkpt lat="49.11126" lon="7.10036">
        <ele>241.97</ele>
        <time>2013-07-06T15:08:34Z</time>
      </trkpt>
      <trkpt lat="49.11106" lon="7.10052">
        <ele>241.99</ele>
        <time>2013-07-06T15:08:38Z</time>
      </trkpt>
      <trkpt lat="49.11085" lon="7.10068">
        <ele>241.88</ele>
        <time>2013-07-06T15:08:42Z</time>
      </trkpt>
      <trkpt lat="49.11068" lon="7.1008">
        <ele>241.87</ele>
        <time>2013-07-06T15:08:45Z</time>
      </trkpt>
      <trkpt lat="49.11052" lon="7.10092">
        <ele>241.76</ele>
        <time>2013-07-06T15:08:48Z</time>
      </trkpt>
      <trkpt lat="49.11035" lon="7.10104">
        <ele>241.72</ele>
        <time>2013-07-06T15:08:51Z</time>
      </trkpt>
      <trkpt lat="49.11019" lon="7.10116">
        <ele>241.68</ele>
        <time>2013-07-06T15:08:54Z</time>
      </trkpt>
      <trkpt lat="49.10998" lon="7.10131">
        <ele>241.74</ele>
        <time>2013-07-06T15:08:58Z</time>
      </trkpt>
      <trkpt lat="49.10978" lon="7.10147">
        <ele>241.91</ele>
        <time>2013-07-06T15:09:02Z</time>
      </trkpt>
      <trkpt lat="49.1096" lon="7.10163">
        <ele>242.32</ele>
        <time>2013-07-06T15:09:06Z</time>
      </trkpt>
      <trkpt lat="49.10946" lon="7.10186">
        <ele>242.57</ele>
        <time>2013-07-06T15:09:10Z</time>
      </trkpt>
      <trkpt lat="49.10935" lon="7.10211">
        <ele>242.85</ele>
        <time>2013-07-06T15:09:14Z</time>
      </trkpt>
      <trkpt lat="49.10921" lon="7.10234">
        <ele>242.94</ele>
        <time>2013-07-06T15:09:18Z</time>
      </trkpt>
      <trkpt lat="49.10908" lon="7.10259">
        <ele>243.01</ele>
        <time>2013-07-06T15:09:22Z</time>
      </trkpt>
      <trkpt lat="49.10894" lon="7.10285">
        <ele>243.17</ele>
        <time>2013-07-06T15:09:26Z</time>
      </trkpt>
      <trkpt lat="49.10881" lon="7.10312">
        <ele>243.25</ele>
        <time>2013-07-06T15:09:30Z</time>
      </trkpt>
      <trkpt lat="49.10867" lon="7.10338">
        <ele>243.4</ele>
        <time>2013-07-06T15:09:34Z</time>
      </trkpt>
      <trkpt lat="49.10854" lon="7.10365">
        <ele>243.43</ele>
        <time>2013-07-06T15:09:38Z</time>
      </trkpt>
      <trkpt lat="49.1084" lon="7.10391">
        <ele>243.42</ele>
        <time>2013-07-06T15:09:42Z</time>
      </trkpt>
      <trkpt lat="49.10825" lon="7.10414">
        <ele>243.62</ele>
        <time>2013-07-06T15:09:46Z</time>
      </trkpt>
      <trkpt lat="49.10809" lon="7.10434">
        <ele>243.93</ele>
        <time>2013-07-06T15:09:50Z</time>
      </trkpt>
      <trkpt lat="49.10795" lon="7.10457">
        <ele>244.25</ele>
        <time>2013-07-06T15:09:55Z</time>
      </trkpt>
      <trkpt lat="49.10775" lon="7.10472">
        <ele>244.36</ele>
        <time>2013-07-06T15:10:00Z</time>
      </trkpt>
      <trkpt lat="49.10756" lon="7.10478">
        <ele>244.63</ele>
        <time>2013-07-06T15:10:04Z</time>
      </trkpt>
      <trkpt lat="49.10739" lon="7.10491">
        <ele>245.13</ele>
        <time>2013-07-06T15:10:08Z</time>
      </trkpt>
      <trkpt lat="49.10721" lon="7.10501">
        <ele>245.81</ele>
        <time>2013-07-06T15:10:12Z</time>
      </trkpt>
      <trkpt lat="49.107" lon="7.1051">
        <ele>246.74</ele>
        <time>2013-07-06T15:10:17Z</time>
      </trkpt>
      <trkpt lat="49.10682" lon="7.10518">
        <ele>247.24</ele>
        <time>2013-07-06T15:10:21Z</time>
      </trkpt>
      <trkpt lat="49.10661" lon="7.10526">
        <ele>247.7</ele>
        <time>2013-07-06T15:10:26Z</time>
      </trkpt>
      <trkpt lat="49.10642" lon="7.10531">
        <ele>247.75</ele>
        <time>2013-07-06T15:10:30Z</time>
      </trkpt>
      <trkpt lat="49.10622" lon="7.10537">
        <ele>247.83</ele>
        <time>2013-07-06T15:10:34Z</time>
      </trkpt>
      <trkpt lat="49.10601" lon="7.10543">
        <ele>247.81</ele>
        <time>2013-07-06T15:10:38Z</time>
      </trkpt>
      <trkpt lat="49.10579" lon="7.10548">
        <ele>247.67</ele>
        <time>2013-07-06T15:10:42Z</time>
      </trkpt>
      <trkpt lat="49.10557" lon="7.10552">
        <ele>247.5</ele>
        <time>2013-07-06T15:10:46Z</time>
      </trkpt>
      <trkpt lat="49.10533" lon="7.10553">
        <ele>247.49</ele>
        <time>2013-07-06T15:10:50Z</time>
      </trkpt>
      <trkpt lat="49.10509" lon="7.10551">
        <ele>247.43</ele>
        <time>2013-07-06T15:10:54Z</time>
      </trkpt>
      <trkpt lat="49.1049" lon="7.1055">
        <ele>247.39</ele>
        <time>2013-07-06T15:10:57Z</time>
      </trkpt>
      <trkpt lat="49.10471" lon="7.10546">
        <ele>247.34</ele>
        <time>2013-07-06T15:11:00Z</time>
      </trkpt>
      <trkpt lat="49.10452" lon="7.10538">
        <ele>247.42</ele>
        <time>2013-07-06T15:11:03Z</time>
      </trkpt>
      <trkpt lat="49.10438" lon="7.10521">
        <ele>247.49</ele>
        <time>2013-07-06T15:11:06Z</time>
      </trkpt>
      <trkpt lat="49.10419" lon="7.10516">
        <ele>247.33</ele>
        <time>2013-07-06T15:11:09Z</time>
      </trkpt>
      <trkpt lat="49.10402" lon="7.10526">
        <ele>247.15</ele>
        <time>2013-07-06T15:11:12Z</time>
      </trkpt>
      <trkpt lat="49.10383" lon="7.10524">
        <ele>246.87</ele>
        <time>2013-07-06T15:11:15Z</time>
      </trkpt>
      <trkpt lat="49.10364" lon="7.10519">
        <ele>246.76</ele>
        <time>2013-07-06T15:11:18Z</time>
      </trkpt>
      <trkpt lat="49.10345" lon="7.10512">
        <ele>246.67</ele>
        <time>2013-07-06T15:11:21Z</time>
      </trkpt>
      <trkpt lat="49.10325" lon="7.10506">
        <ele>246.43</ele>
        <time>2013-07-06T15:11:24Z</time>
      </trkpt>
      <trkpt lat="49.10306" lon="7.10499">
        <ele>246.01</ele>
        <time>2013-07-06T15:11:27Z</time>
      </trkpt>
      <trkpt lat="49.10286" lon="7.10495">
        <ele>245.43</ele>
        <time>2013-07-06T15:11:30Z</time>
      </trkpt>
      <trkpt lat="49.10267" lon="7.10492">
        <ele>244.95</ele>
        <time>2013-07-06T15:11:33Z</time>
      </trkpt>
      <trkpt lat="49.10248" lon="7.10494">
        <ele>244.51</ele>
        <time>2013-07-06T15:11:36Z</time>
      </trkpt>
      <trkpt lat="49.10229" lon="7.10497">
        <ele>243.88</ele>
        <time>2013-07-06T15:11:39Z</time>
      </trkpt>
      <trkpt lat="49.10208" lon="7.10504">
        <ele>242.84</ele>
        <time>2013-07-06T15:11:42Z</time>
      </trkpt>
      <trkpt lat="49.10186" lon="7.10516">
        <ele>241.86</ele>
        <time>2013-07-06T15:11:45Z</time>
      </trkpt>
      <trkpt lat="49.10164" lon="7.10533">
        <ele>241.12</ele>
        <time>2013-07-06T15:11:48Z</time>
      </trkpt>
      <trkpt lat="49.10144" lon="7.10552">
        <ele>240.6</ele>
        <time>2013-07-06T15:11:51Z</time>
      </trkpt>
      <trkpt lat="49.10126" lon="7.10569">
        <ele>240.64</ele>
        <time>2013-07-06T15:11:54Z</time>
      </trkpt>
      <trkpt lat="49.10107" lon="7.10589">
        <ele>241.45</ele>
        <time>2013-07-06T15:11:58Z</time>
      </trkpt>
      <trkpt lat="49.10088" lon="7.10605">
        <ele>242.32</ele>
        <time>2013-07-06T15:12:02Z</time>
      </trkpt>
      <trkpt lat="49.10072" lon="7.10621">
        <ele>243.16</ele>
        <time>2013-07-06T15:12:06Z</time>
      </trkpt>
      <trkpt lat="49.10056" lon="7.10636">
        <ele>243.98</ele>
        <time>2013-07-06T15:12:10Z</time>
      </trkpt>
      <trkpt lat="49.1004" lon="7.1065">
        <ele>244.62</ele>
        <time>2013-07-06T15:12:14Z</time>
      </trkpt>
      <trkpt lat="49.10021" lon="7.10666">
        <ele>245.02</ele>
        <time>2013-07-06T15:12:18Z</time>
      </trkpt>
      <trkpt lat="49.10001" lon="7.1068">
        <ele>245.24</ele>
        <time>2013-07-06T15:12:22Z</time>
      </trkpt>
      <trkpt lat="49.09979" lon="7.10694">
        <ele>245.36</ele>
        <time>2013-07-06T15:12:26Z</time>
      </trkpt>
      <trkpt lat="49.09958" lon="7.10708">
        <ele>245.49</ele>
        <time>2013-07-06T15:12:30Z</time>
      </trkpt>
      <trkpt lat="49.09936" lon="7.10721">
        <ele>245.67</ele>
        <time>2013-07-06T15:12:34Z</time>
      </trkpt>
      <trkpt lat="49.09916" lon="7.10735">
        <ele>245.95</ele>
        <time>2013-07-06T15:12:38Z</time>
      </trkpt>
      <trkpt lat="49.09895" lon="7.10747">
        <ele>246.35</ele>
        <time>2013-07-06T15:12:42Z</time>
      </trkpt>
      <trkpt lat="49.09875" lon="7.1076">
        <ele>246.7</ele>
        <time>2013-07-06T15:12:46Z</time>
      </trkpt>
      <trkpt lat="49.09854" lon="7.10773">
        <ele>246.99</ele>
        <time>2013-07-06T15:12:50Z</time>
      </trkpt>
      <trkpt lat="49.09834" lon="7.10789">
        <ele>247.36</ele>
        <time>2013-07-06T15:12:54Z</time>
      </trkpt>
      <trkpt lat="49.09815" lon="7.10806">
        <ele>247.44</ele>
        <time>2013-07-06T15:12:58Z</time>
      </trkpt>
      <trkpt lat="49.09795" lon="7.10824">
        <ele>247.58</ele>
        <time>2013-07-06T15:13:02Z</time>
      </trkpt>
      <trkpt lat="49.09779" lon="7.10839">
        <ele>247.63</ele>
        <time>2013-07-06T15:13:05Z</time>
      </trkpt>
      <trkpt lat="49.09759" lon="7.10856">
        <ele>247.79</ele>
        <time>2013-07-06T15:13:09Z</time>
      </trkpt>
      <trkpt lat="49.0974" lon="7.10871">
        <ele>248.06</ele>
        <time>2013-07-06T15:13:13Z</time>
      </trkpt>
      <trkpt lat="49.0972" lon="7.10887">
        <ele>248.41</ele>
        <time>2013-07-06T15:13:17Z</time>
      </trkpt>
      <trkpt lat="49.097" lon="7.10901">
        <ele>248.64</ele>
        <time>2013-07-06T15:13:21Z</time>
      </trkpt>
      <trkpt lat="49.09682" lon="7.10915">
        <ele>248.93</ele>
        <time>2013-07-06T15:13:25Z</time>
      </trkpt>
      <trkpt lat="49.09664" lon="7.10929">
        <ele>249.29</ele>
        <time>2013-07-06T15:13:29Z</time>
      </trkpt>
      <trkpt lat="49.09647" lon="7.10942">
        <ele>249.45</ele>
        <time>2013-07-06T15:13:33Z</time>
      </trkpt>
      <trkpt lat="49.09628" lon="7.10955">
        <ele>249.28</ele>
        <time>2013-07-06T15:13:37Z</time>
      </trkpt>
      <trkpt lat="49.09605" lon="7.10958">
        <ele>248.76</ele>
        <time>2013-07-06T15:13:41Z</time>
      </trkpt>
      <trkpt lat="49.09587" lon="7.10949">
        <ele>248.44</ele>
        <time>2013-07-06T15:13:44Z</time>
      </trkpt>
      <trkpt lat="49.09572" lon="7.1093">
        <ele>248.16</ele>
        <time>2013-07-06T15:13:47Z</time>
      </trkpt>
      <trkpt lat="49.09557" lon="7.1091">
        <ele>247.81</ele>
        <time>2013-07-06T15:13:50Z</time>
      </trkpt>
      <trkpt lat="49.09541" lon="7.10889">
        <ele>247.37</ele>
        <time>2013-07-06T15:13:53Z</time>
      </trkpt>
      <trkpt lat="49.09523" lon="7.10869">
        <ele>246.84</ele>
        <time>2013-07-06T15:13:56Z</time>
      </trkpt>
      <trkpt lat="49.09504" lon="7.10851">
        <ele>246.29</ele>
        <time>2013-07-06T15:13:59Z</time>
      </trkpt>
      <trkpt lat="49.09483" lon="7.10836">
        <ele>245.83</ele>
        <time>2013-07-06T15:14:02Z</time>
      </trkpt>
      <trkpt lat="49.09462" lon="7.10821">
        <ele>245.24</ele>
        <time>2013-07-06T15:14:05Z</time>
      </trkpt>
      <trkpt lat="49.09441" lon="7.10807">
        <ele>244.69</ele>
        <time>2013-07-06T15:14:08Z</time>
      </trkpt>
      <trkpt lat="49.09419" lon="7.10794">
        <ele>244.14</ele>
        <time>2013-07-06T15:14:11Z</time>
      </trkpt>
      <trkpt lat="49.09399" lon="7.1078">
        <ele>243.59</ele>
        <time>2013-07-06T15:14:14Z</time>
      </trkpt>
      <trkpt lat="49.09378" lon="7.10768">
        <ele>243.28</ele>
        <time>2013-07-06T15:14:17Z</time>
      </trkpt>
      <trkpt lat="49.09357" lon="7.10755">
        <ele>242.63</ele>
        <time>2013-07-06T15:14:20Z</time>
      </trkpt>
      <trkpt lat="49.09336" lon="7.10741">
        <ele>241.79</ele>
        <time>2013-07-06T15:14:23Z</time>
      </trkpt>
      <trkpt lat="49.09314" lon="7.10728">
        <ele>241.24</ele>
        <time>2013-07-06T15:14:26Z</time>
      </trkpt>
      <trkpt lat="49.09293" lon="7.10715">
        <ele>240.82</ele>
        <time>2013-07-06T15:14:29Z</time>
      </trkpt>
      <trkpt lat="49.09272" lon="7.10701">
        <ele>240.4</ele>
        <time>2013-07-06T15:14:32Z</time>
      </trkpt>
      <trkpt lat="49.09252" lon="7.10688">
        <ele>239.71</ele>
        <time>2013-07-06T15:14:35Z</time>
      </trkpt>
      <trkpt lat="49.09233" lon="7.10676">
        <ele>239.06</ele>
        <time>2013-07-06T15:14:38Z</time>
      </trkpt>
      <trkpt lat="49.09214" lon="7.10663">
        <ele>238.47</ele>
        <time>2013-07-06T15:14:41Z</time>
      </trkpt>
      <trkpt lat="49.09195" lon="7.1065">
        <ele>237.91</ele>
        <time>2013-07-06T15:14:44Z</time>
      </trkpt>
      <trkpt lat="49.09175" lon="7.10636">
        <ele>237.39</ele>
        <time>2013-07-06T15:14:47Z</time>
      </trkpt>
      <trkpt lat="49.09155" lon="7.1062">
        <ele>236.68</ele>
        <time>2013-07-06T15:14:50Z</time>
      </trkpt>
      <trkpt lat="49.09135" lon="7.106">
        <ele>235.71</ele>
        <time>2013-07-06T15:14:53Z</time>
      </trkpt>
      <trkpt lat="49.09113" lon="7.10578">
        <ele>234.53</ele>
        <time>2013-07-06T15:14:56Z</time>
      </trkpt>
      <trkpt lat="49.09091" lon="7.10555">
        <ele>233.34</ele>
        <time>2013-07-06T15:14:59Z</time>
      </trkpt>
      <trkpt lat="49.09076" lon="7.10538">
        <ele>232.35</ele>
        <time>2013-07-06T15:15:01Z</time>
      </trkpt>
      <trkpt lat="49.09061" lon="7.1052">
        <ele>231.21</ele>
        <time>2013-07-06T15:15:03Z</time>
      </trkpt>
      <trkpt lat="49.09048" lon="7.10501">
        <ele>229.84</ele>
        <time>2013-07-06T15:15:05Z</time>
      </trkpt>
      <trkpt lat="49.09029" lon="7.10474">
        <ele>227.46</ele>
        <time>2013-07-06T15:15:08Z</time>
      </trkpt>
      <trkpt lat="49.09009" lon="7.10454">
        <ele>224.66</ele>
        <time>2013-07-06T15:15:11Z</time>
      </trkpt>
      <trkpt lat="49.08986" lon="7.10453">
        <ele>222.06</ele>
        <time>2013-07-06T15:15:14Z</time>
      </trkpt>
      <trkpt lat="49.08967" lon="7.10477">
        <ele>220.79</ele>
        <time>2013-07-06T15:15:17Z</time>
      </trkpt>
      <trkpt lat="49.08955" lon="7.1051">
        <ele>219.47</ele>
        <time>2013-07-06T15:15:20Z</time>
      </trkpt>
      <trkpt lat="49.08943" lon="7.10542">
        <ele>217.64</ele>
        <time>2013-07-06T15:15:23Z</time>
      </trkpt>
      <trkpt lat="49.08926" lon="7.10567">
        <ele>215.76</ele>
        <time>2013-07-06T15:15:26Z</time>
      </trkpt>
      <trkpt lat="49.08914" lon="7.1059">
        <ele>214.61</ele>
        <time>2013-07-06T15:15:29Z</time>
      </trkpt>
      <trkpt lat="49.08903" lon="7.1062">
        <ele>213.55</ele>
        <time>2013-07-06T15:15:33Z</time>
      </trkpt>
      <trkpt lat="49.08896" lon="7.10649">
        <ele>212.84</ele>
        <time>2013-07-06T15:15:37Z</time>
      </trkpt>
      <trkpt lat="49.08893" lon="7.10678">
        <ele>212.47</ele>
        <time>2013-07-06T15:15:41Z</time>
      </trkpt>
      <trkpt lat="49.08891" lon="7.10706">
        <ele>212.89</ele>
        <time>2013-07-06T15:15:45Z</time>
      </trkpt>
      <trkpt lat="49.08889" lon="7.10738">
        <ele>213.62</ele>
        <time>2013-07-06T15:15:50Z</time>
      </trkpt>
      <trkpt lat="49.08872" lon="7.10751">
        <ele>213.38</ele>
        <time>2013-07-06T15:15:56Z</time>
      </trkpt>
      <trkpt lat="49.08854" lon="7.10746">
        <ele>212.89</ele>
        <time>2013-07-06T15:15:59Z</time>
      </trkpt>
      <trkpt lat="49.08834" lon="7.10744">
        <ele>212.57</ele>
        <time>2013-07-06T15:16:02Z</time>
      </trkpt>
      <trkpt lat="49.08815" lon="7.10747">
        <ele>212.29</ele>
        <time>2013-07-06T15:16:05Z</time>
      </trkpt>
      <trkpt lat="49.08794" lon="7.10753">
        <ele>212.27</ele>
        <time>2013-07-06T15:16:09Z</time>
      </trkpt>
      <trkpt lat="49.08775" lon="7.1076">
        <ele>212.42</ele>
        <time>2013-07-06T15:16:13Z</time>
      </trkpt>
      <trkpt lat="49.08758" lon="7.10767">
        <ele>212.84</ele>
        <time>2013-07-06T15:16:17Z</time>
      </trkpt>
      <trkpt lat="49.08736" lon="7.10777">
        <ele>213.29</ele>
        <time>2013-07-06T15:16:22Z</time>
      </trkpt>
      <trkpt lat="49.08715" lon="7.10787">
        <ele>213.87</ele>
        <time>2013-07-06T15:16:27Z</time>
      </trkpt>
      <trkpt lat="49.08694" lon="7.10798">
        <ele>214.37</ele>
        <time>2013-07-06T15:16:32Z</time>
      </trkpt>
      <trkpt lat="49.08675" lon="7.10808">
        <ele>214.58</ele>
        <time>2013-07-06T15:16:37Z</time>
      </trkpt>
      <trkpt lat="49.08671" lon="7.10842">
        <ele>214.31</ele>
        <time>2013-07-06T15:16:43Z</time>
      </trkpt>
      <trkpt lat="49.08672" lon="7.10871">
        <ele>213.04</ele>
        <time>2013-07-06T15:16:46Z</time>
      </trkpt>
      <trkpt lat="49.08672" lon="7.10904">
        <ele>211.72</ele>
        <time>2013-07-06T15:16:49Z</time>
      </trkpt>
      <trkpt lat="49.08671" lon="7.10935">
        <ele>210.97</ele>
        <time>2013-07-06T15:16:52Z</time>
      </trkpt>
      <trkpt lat="49.08674" lon="7.10963">
        <ele>210.84</ele>
        <time>2013-07-06T15:16:55Z</time>
      </trkpt>
      <trkpt lat="49.08677" lon="7.10997">
        <ele>211.63</ele>
        <time>2013-07-06T15:16:59Z</time>
      </trkpt>
      <trkpt lat="49.08677" lon="7.11024">
        <ele>212.63</ele>
        <time>2013-07-06T15:17:03Z</time>
      </trkpt>
      <trkpt lat="49.08675" lon="7.11054">
        <ele>212.87</ele>
        <time>2013-07-06T15:17:07Z</time>
      </trkpt>
      <trkpt lat="49.0868" lon="7.11089">
        <ele>212.86</ele>
        <time>2013-07-06T15:17:11Z</time>
      </trkpt>
      <trkpt lat="49.08682" lon="7.11124">
        <ele>213.02</ele>
        <time>2013-07-06T15:17:15Z</time>
      </trkpt>
      <trkpt lat="49.08684" lon="7.11159">
        <ele>213.55</ele>
        <time>2013-07-06T15:17:19Z</time>
      </trkpt>
      <trkpt lat="49.08687" lon="7.11194">
        <ele>214.11</ele>
        <time>2013-07-06T15:17:23Z</time>
      </trkpt>
      <trkpt lat="49.0869" lon="7.11228">
        <ele>214.37</ele>
        <time>2013-07-06T15:17:27Z</time>
      </trkpt>
      <trkpt lat="49.08692" lon="7.1126">
        <ele>214.69</ele>
        <time>2013-07-06T15:17:31Z</time>
      </trkpt>
      <trkpt lat="49.08696" lon="7.11295">
        <ele>215.15</ele>
        <time>2013-07-06T15:17:35Z</time>
      </trkpt>
      <trkpt lat="49.087" lon="7.1133">
        <ele>215.58</ele>
        <time>2013-07-06T15:17:39Z</time>
      </trkpt>
      <trkpt lat="49.08705" lon="7.11365">
        <ele>215.27</ele>
        <time>2013-07-06T15:17:43Z</time>
      </trkpt>
      <trkpt lat="49.0871" lon="7.114">
        <ele>214.97</ele>
        <time>2013-07-06T15:17:47Z</time>
      </trkpt>
      <trkpt lat="49.08714" lon="7.11434">
        <ele>214.92</ele>
        <time>2013-07-06T15:17:51Z</time>
      </trkpt>
      <trkpt lat="49.08718" lon="7.11461">
        <ele>214.97</ele>
        <time>2013-07-06T15:17:54Z</time>
      </trkpt>
      <trkpt lat="49.08722" lon="7.11489">
        <ele>215.35</ele>
        <time>2013-07-06T15:17:57Z</time>
      </trkpt>
      <trkpt lat="49.08726" lon="7.11516">
        <ele>215.74</ele>
        <time>2013-07-06T15:18:00Z</time>
      </trkpt>
      <trkpt lat="49.0873" lon="7.11544">
        <ele>216.19</ele>
        <time>2013-07-06T15:18:03Z</time>
      </trkpt>
      <trkpt lat="49.08735" lon="7.1157">
        <ele>216.43</ele>
        <time>2013-07-06T15:18:06Z</time>
      </trkpt>
      <trkpt lat="49.0874" lon="7.11597">
        <ele>216.4</ele>
        <time>2013-07-06T15:18:09Z</time>
      </trkpt>
      <trkpt lat="49.08744" lon="7.11624">
        <ele>216.56</ele>
        <time>2013-07-06T15:18:12Z</time>
      </trkpt>
      <trkpt lat="49.08749" lon="7.11651">
        <ele>216.91</ele>
        <time>2013-07-06T15:18:15Z</time>
      </trkpt>
      <trkpt lat="49.08753" lon="7.1168">
        <ele>217.46</ele>
        <time>2013-07-06T15:18:18Z</time>
      </trkpt>
      <trkpt lat="49.08757" lon="7.11707">
        <ele>217.7</ele>
        <time>2013-07-06T15:18:21Z</time>
      </trkpt>
      <trkpt lat="49.08761" lon="7.11735">
        <ele>217.95</ele>
        <time>2013-07-06T15:18:24Z</time>
      </trkpt>
      <trkpt lat="49.08764" lon="7.1177">
        <ele>219.2</ele>
        <time>2013-07-06T15:18:28Z</time>
      </trkpt>
      <trkpt lat="49.08767" lon="7.11798">
        <ele>220.18</ele>
        <time>2013-07-06T15:18:31Z</time>
      </trkpt>
      <trkpt lat="49.08769" lon="7.11833">
        <ele>221.22</ele>
        <time>2013-07-06T15:18:35Z</time>
      </trkpt>
      <trkpt lat="49.08772" lon="7.11869">
        <ele>221.85</ele>
        <time>2013-07-06T15:18:39Z</time>
      </trkpt>
      <trkpt lat="49.08774" lon="7.11901">
        <ele>221.63</ele>
        <time>2013-07-06T15:18:43Z</time>
      </trkpt>
      <trkpt lat="49.08774" lon="7.11934">
        <ele>221.42</ele>
        <time>2013-07-06T15:18:47Z</time>
      </trkpt>
      <trkpt lat="49.08776" lon="7.11961">
        <ele>221.74</ele>
        <time>2013-07-06T15:18:50Z</time>
      </trkpt>
      <trkpt lat="49.08778" lon="7.11998">
        <ele>222.97</ele>
        <time>2013-07-06T15:18:54Z</time>
      </trkpt>
      <trkpt lat="49.0878" lon="7.12026">
        <ele>224.17</ele>
        <time>2013-07-06T15:18:57Z</time>
      </trkpt>
      <trkpt lat="49.08781" lon="7.12054">
        <ele>225.44</ele>
        <time>2013-07-06T15:19:00Z</time>
      </trkpt>
      <trkpt lat="49.08782" lon="7.12081">
        <ele>226.48</ele>
        <time>2013-07-06T15:19:03Z</time>
      </trkpt>
      <trkpt lat="49.08783" lon="7.12109">
        <ele>226.68</ele>
        <time>2013-07-06T15:19:06Z</time>
      </trkpt>
      <trkpt lat="49.08783" lon="7.12144">
        <ele>226.68</ele>
        <time>2013-07-06T15:19:10Z</time>
      </trkpt>
      <trkpt lat="49.08783" lon="7.12179">
        <ele>226.81</ele>
        <time>2013-07-06T15:19:14Z</time>
      </trkpt>
      <trkpt lat="49.08781" lon="7.12215">
        <ele>227.41</ele>
        <time>2013-07-06T15:19:18Z</time>
      </trkpt>
      <trkpt lat="49.08779" lon="7.12251">
        <ele>227.44</ele>
        <time>2013-07-06T15:19:22Z</time>
      </trkpt>
      <trkpt lat="49.08777" lon="7.12287">
        <ele>227.85</ele>
        <time>2013-07-06T15:19:26Z</time>
      </trkpt>
      <trkpt lat="49.08773" lon="7.1232">
        <ele>227.98</ele>
        <time>2013-07-06T15:19:30Z</time>
      </trkpt>
      <trkpt lat="49.08769" lon="7.12353">
        <ele>227.55</ele>
        <time>2013-07-06T15:19:34Z</time>
      </trkpt>
      <trkpt lat="49.08766" lon="7.12388">
        <ele>227.43</ele>
        <time>2013-07-06T15:19:38Z</time>
      </trkpt>
      <trkpt lat="49.08766" lon="7.12418">
        <ele>227.04</ele>
        <time>2013-07-06T15:19:41Z</time>
      </trkpt>
      <trkpt lat="49.08764" lon="7.12454">
        <ele>225.49</ele>
        <time>2013-07-06T15:19:45Z</time>
      </trkpt>
      <trkpt lat="49.08762" lon="7.12481">
        <ele>224.92</ele>
        <time>2013-07-06T15:19:48Z</time>
      </trkpt>
      <trkpt lat="49.08759" lon="7.1251">
        <ele>224.7</ele>
        <time>2013-07-06T15:19:51Z</time>
      </trkpt>
      <trkpt lat="49.08759" lon="7.12538">
        <ele>221.75</ele>
        <time>2013-07-06T15:19:54Z</time>
      </trkpt>
      <trkpt lat="49.08755" lon="7.12574">
        <ele>219.03</ele>
        <time>2013-07-06T15:19:58Z</time>
      </trkpt>
      <trkpt lat="49.0875" lon="7.12608">
        <ele>217.45</ele>
        <time>2013-07-06T15:20:02Z</time>
      </trkpt>
      <trkpt lat="49.08746" lon="7.12643">
        <ele>216.2</ele>
        <time>2013-07-06T15:20:06Z</time>
      </trkpt>
      <trkpt lat="49.0874" lon="7.12677">
        <ele>215.33</ele>
        <time>2013-07-06T15:20:10Z</time>
      </trkpt>
      <trkpt lat="49.08734" lon="7.12711">
        <ele>214.47</ele>
        <time>2013-07-06T15:20:14Z</time>
      </trkpt>
      <trkpt lat="49.08727" lon="7.12745">
        <ele>214.4</ele>
        <time>2013-07-06T15:20:18Z</time>
      </trkpt>
      <trkpt lat="49.0872" lon="7.12778">
        <ele>214.29</ele>
        <time>2013-07-06T15:20:22Z</time>
      </trkpt>
      <trkpt lat="49.08712" lon="7.12812">
        <ele>214.2</ele>
        <time>2013-07-06T15:20:26Z</time>
      </trkpt>
      <trkpt lat="49.08705" lon="7.12837">
        <ele>214.66</ele>
        <time>2013-07-06T15:20:29Z</time>
      </trkpt>
      <trkpt lat="49.08695" lon="7.1287">
        <ele>215.33</ele>
        <time>2013-07-06T15:20:33Z</time>
      </trkpt>
      <trkpt lat="49.08685" lon="7.12902">
        <ele>215.48</ele>
        <time>2013-07-06T15:20:37Z</time>
      </trkpt>
      <trkpt lat="49.08674" lon="7.12932">
        <ele>214.75</ele>
        <time>2013-07-06T15:20:41Z</time>
      </trkpt>
      <trkpt lat="49.08662" lon="7.12961">
        <ele>214</ele>
        <time>2013-07-06T15:20:45Z</time>
      </trkpt>
      <trkpt lat="49.08651" lon="7.12984">
        <ele>213.75</ele>
        <time>2013-07-06T15:20:48Z</time>
      </trkpt>
      <trkpt lat="49.08639" lon="7.13006">
        <ele>213.75</ele>
        <time>2013-07-06T15:20:51Z</time>
      </trkpt>
      <trkpt lat="49.08627" lon="7.13027">
        <ele>213.75</ele>
        <time>2013-07-06T15:20:54Z</time>
      </trkpt>
      <trkpt lat="49.08615" lon="7.13048">
        <ele>213.78</ele>
        <time>2013-07-06T15:20:57Z</time>
      </trkpt>
      <trkpt lat="49.08598" lon="7.13073">
        <ele>214</ele>
        <time>2013-07-06T15:21:01Z</time>
      </trkpt>
      <trkpt lat="49.08581" lon="7.13098">
        <ele>213.7</ele>
        <time>2013-07-06T15:21:05Z</time>
      </trkpt>
      <trkpt lat="49.08563" lon="7.13121">
        <ele>214.06</ele>
        <time>2013-07-06T15:21:09Z</time>
      </trkpt>
      <trkpt lat="49.08549" lon="7.13137">
        <ele>214.29</ele>
        <time>2013-07-06T15:21:12Z</time>
      </trkpt>
      <trkpt lat="49.08533" lon="7.13153">
        <ele>214.56</ele>
        <time>2013-07-06T15:21:15Z</time>
      </trkpt>
      <trkpt lat="49.08517" lon="7.13167">
        <ele>214.51</ele>
        <time>2013-07-06T15:21:18Z</time>
      </trkpt>
      <trkpt lat="49.08501" lon="7.13181">
        <ele>213.99</ele>
        <time>2013-07-06T15:21:21Z</time>
      </trkpt>
      <trkpt lat="49.08484" lon="7.13195">
        <ele>213.66</ele>
        <time>2013-07-06T15:21:24Z</time>
      </trkpt>
      <trkpt lat="49.08467" lon="7.1321">
        <ele>213.44</ele>
        <time>2013-07-06T15:21:27Z</time>
      </trkpt>
      <trkpt lat="49.0845" lon="7.13225">
        <ele>213.22</ele>
        <time>2013-07-06T15:21:30Z</time>
      </trkpt>
      <trkpt lat="49.08434" lon="7.1324">
        <ele>213.15</ele>
        <time>2013-07-06T15:21:33Z</time>
      </trkpt>
      <trkpt lat="49.08417" lon="7.13254">
        <ele>213.14</ele>
        <time>2013-07-06T15:21:36Z</time>
      </trkpt>
      <trkpt lat="49.084" lon="7.13269">
        <ele>213.13</ele>
        <time>2013-07-06T15:21:39Z</time>
      </trkpt>
      <trkpt lat="49.08384" lon="7.13284">
        <ele>213.1</ele>
        <time>2013-07-06T15:21:42Z</time>
      </trkpt>
      <trkpt lat="49.08368" lon="7.13298">
        <ele>213.03</ele>
        <time>2013-07-06T15:21:45Z</time>
      </trkpt>
      <trkpt lat="49.08351" lon="7.13312">
        <ele>212.77</ele>
        <time>2013-07-06T15:21:48Z</time>
      </trkpt>
      <trkpt lat="49.08334" lon="7.13327">
        <ele>212.66</ele>
        <time>2013-07-06T15:21:51Z</time>
      </trkpt>
      <trkpt lat="49.08318" lon="7.13341">
        <ele>212.59</ele>
        <time>2013-07-06T15:21:54Z</time>
      </trkpt>
      <trkpt lat="49.08302" lon="7.13355">
        <ele>212.59</ele>
        <time>2013-07-06T15:21:57Z</time>
      </trkpt>
      <trkpt lat="49.08286" lon="7.1337">
        <ele>212.59</ele>
        <time>2013-07-06T15:22:00Z</time>
      </trkpt>
      <trkpt lat="49.08269" lon="7.13385">
        <ele>212.54</ele>
        <time>2013-07-06T15:22:03Z</time>
      </trkpt>
      <trkpt lat="49.08252" lon="7.13399">
        <ele>212.38</ele>
        <time>2013-07-06T15:22:06Z</time>
      </trkpt>
      <trkpt lat="49.08236" lon="7.13414">
        <ele>212.19</ele>
        <time>2013-07-06T15:22:09Z</time>
      </trkpt>
      <trkpt lat="49.08219" lon="7.13429">
        <ele>212.13</ele>
        <time>2013-07-06T15:22:12Z</time>
      </trkpt>
      <trkpt lat="49.08201" lon="7.13444">
        <ele>212.1</ele>
        <time>2013-07-06T15:22:15Z</time>
      </trkpt>
      <trkpt lat="49.08183" lon="7.1346">
        <ele>211.97</ele>
        <time>2013-07-06T15:22:18Z</time>
      </trkpt>
      <trkpt lat="49.08167" lon="7.13474">
        <ele>211.86</ele>
        <time>2013-07-06T15:22:21Z</time>
      </trkpt>
      <trkpt lat="49.08151" lon="7.13488">
        <ele>211.79</ele>
        <time>2013-07-06T15:22:24Z</time>
      </trkpt>
      <trkpt lat="49.08134" lon="7.13503">
        <ele>211.65</ele>
        <time>2013-07-06T15:22:27Z</time>
      </trkpt>
      <trkpt lat="49.08117" lon="7.13518">
        <ele>211.53</ele>
        <time>2013-07-06T15:22:30Z</time>
      </trkpt>
      <trkpt lat="49.08101" lon="7.13532">
        <ele>211.47</ele>
        <time>2013-07-06T15:22:33Z</time>
      </trkpt>
      <trkpt lat="49.08084" lon="7.13547">
        <ele>211.48</ele>
        <time>2013-07-06T15:22:36Z</time>
      </trkpt>
      <trkpt lat="49.08068" lon="7.13562">
        <ele>211.46</ele>
        <time>2013-07-06T15:22:39Z</time>
      </trkpt>
      <trkpt lat="49.08052" lon="7.13576">
        <ele>211.39</ele>
        <time>2013-07-06T15:22:42Z</time>
      </trkpt>
      <trkpt lat="49.08035" lon="7.1359">
        <ele>211.33</ele>
        <time>2013-07-06T15:22:45Z</time>
      </trkpt>
      <trkpt lat="49.0802" lon="7.13603">
        <ele>211.3</ele>
        <time>2013-07-06T15:22:48Z</time>
      </trkpt>
      <trkpt lat="49.08004" lon="7.13617">
        <ele>211.25</ele>
        <time>2013-07-06T15:22:51Z</time>
      </trkpt>
      <trkpt lat="49.07988" lon="7.13631">
        <ele>211.21</ele>
        <time>2013-07-06T15:22:54Z</time>
      </trkpt>
      <trkpt lat="49.07972" lon="7.13646">
        <ele>211.11</ele>
        <time>2013-07-06T15:22:57Z</time>
      </trkpt>
      <trkpt lat="49.07955" lon="7.1366">
        <ele>211.04</ele>
        <time>2013-07-06T15:23:00Z</time>
      </trkpt>
      <trkpt lat="49.07939" lon="7.13675">
        <ele>211.05</ele>
        <time>2013-07-06T15:23:03Z</time>
      </trkpt>
      <trkpt lat="49.07922" lon="7.13689">
        <ele>211.23</ele>
        <time>2013-07-06T15:23:06Z</time>
      </trkpt>
      <trkpt lat="49.07906" lon="7.13702">
        <ele>211.42</ele>
        <time>2013-07-06T15:23:09Z</time>
      </trkpt>
      <trkpt lat="49.07889" lon="7.13712">
        <ele>211.5</ele>
        <time>2013-07-06T15:23:12Z</time>
      </trkpt>
      <trkpt lat="49.07872" lon="7.13722">
        <ele>211.45</ele>
        <time>2013-07-06T15:23:15Z</time>
      </trkpt>
      <trkpt lat="49.0785" lon="7.13731">
        <ele>211.44</ele>
        <time>2013-07-06T15:23:19Z</time>
      </trkpt>
      <trkpt lat="49.07826" lon="7.13736">
        <ele>211.46</ele>
        <time>2013-07-06T15:23:23Z</time>
      </trkpt>
      <trkpt lat="49.07803" lon="7.13739">
        <ele>211.61</ele>
        <time>2013-07-06T15:23:27Z</time>
      </trkpt>
      <trkpt lat="49.0778" lon="7.13743">
        <ele>212.02</ele>
        <time>2013-07-06T15:23:31Z</time>
      </trkpt>
      <trkpt lat="49.07761" lon="7.13748">
        <ele>212.88</ele>
        <time>2013-07-06T15:23:35Z</time>
      </trkpt>
      <trkpt lat="49.07742" lon="7.1375">
        <ele>214.45</ele>
        <time>2013-07-06T15:23:41Z</time>
      </trkpt>
      <trkpt lat="49.07722" lon="7.13747">
        <ele>217.74</ele>
        <time>2013-07-06T15:24:05Z</time>
      </trkpt>
      <trkpt lat="49.07703" lon="7.13744">
        <ele>217.9</ele>
        <time>2013-07-06T15:24:09Z</time>
      </trkpt>
      <trkpt lat="49.07684" lon="7.13741">
        <ele>217.87</ele>
        <time>2013-07-06T15:24:12Z</time>
      </trkpt>
      <trkpt lat="49.0766" lon="7.13737">
        <ele>218</ele>
        <time>2013-07-06T15:24:16Z</time>
      </trkpt>
      <trkpt lat="49.07637" lon="7.13738">
        <ele>218.25</ele>
        <time>2013-07-06T15:24:20Z</time>
      </trkpt>
      <trkpt lat="49.07613" lon="7.13738">
        <ele>218.05</ele>
        <time>2013-07-06T15:24:24Z</time>
      </trkpt>
      <trkpt lat="49.0759" lon="7.13738">
        <ele>217.66</ele>
        <time>2013-07-06T15:24:28Z</time>
      </trkpt>
      <trkpt lat="49.07569" lon="7.13734">
        <ele>217.56</ele>
        <time>2013-07-06T15:24:32Z</time>
      </trkpt>
      <trkpt lat="49.0755" lon="7.13729">
        <ele>217.42</ele>
        <time>2013-07-06T15:24:36Z</time>
      </trkpt>
      <trkpt lat="49.07529" lon="7.13721">
        <ele>217.24</ele>
        <time>2013-07-06T15:24:41Z</time>
      </trkpt>
      <trkpt lat="49.07509" lon="7.13711">
        <ele>216.94</ele>
        <time>2013-07-06T15:24:45Z</time>
      </trkpt>
      <trkpt lat="49.07488" lon="7.13698">
        <ele>216.73</ele>
        <time>2013-07-06T15:24:49Z</time>
      </trkpt>
      <trkpt lat="49.07466" lon="7.13685">
        <ele>216.7</ele>
        <time>2013-07-06T15:24:53Z</time>
      </trkpt>
      <trkpt lat="49.07445" lon="7.13668">
        <ele>216.44</ele>
        <time>2013-07-06T15:24:57Z</time>
      </trkpt>
      <trkpt lat="49.07426" lon="7.13647">
        <ele>216.28</ele>
        <time>2013-07-06T15:25:01Z</time>
      </trkpt>
      <trkpt lat="49.07407" lon="7.13627">
        <ele>216.17</ele>
        <time>2013-07-06T15:25:05Z</time>
      </trkpt>
      <trkpt lat="49.07392" lon="7.13605">
        <ele>216.33</ele>
        <time>2013-07-06T15:25:09Z</time>
      </trkpt>
      <trkpt lat="49.07377" lon="7.13584">
        <ele>216.61</ele>
        <time>2013-07-06T15:25:13Z</time>
      </trkpt>
      <trkpt lat="49.07363" lon="7.13558">
        <ele>216.82</ele>
        <time>2013-07-06T15:25:18Z</time>
      </trkpt>
      <trkpt lat="49.07354" lon="7.13528">
        <ele>217.82</ele>
        <time>2013-07-06T15:26:47Z</time>
      </trkpt>
      <trkpt lat="49.07341" lon="7.13499">
        <ele>217.13</ele>
        <time>2013-07-06T15:26:51Z</time>
      </trkpt>
      <trkpt lat="49.07331" lon="7.13476">
        <ele>216.92</ele>
        <time>2013-07-06T15:26:54Z</time>
      </trkpt>
      <trkpt lat="49.07321" lon="7.13451">
        <ele>216.8</ele>
        <time>2013-07-06T15:26:57Z</time>
      </trkpt>
      <trkpt lat="49.07311" lon="7.13424">
        <ele>216.41</ele>
        <time>2013-07-06T15:27:00Z</time>
      </trkpt>
      <trkpt lat="49.07301" lon="7.13396">
        <ele>216</ele>
        <time>2013-07-06T15:27:03Z</time>
      </trkpt>
      <trkpt lat="49.0729" lon="7.1337">
        <ele>215.7</ele>
        <time>2013-07-06T15:27:06Z</time>
      </trkpt>
      <trkpt lat="49.07279" lon="7.13344">
        <ele>215.39</ele>
        <time>2013-07-06T15:27:09Z</time>
      </trkpt>
      <trkpt lat="49.07269" lon="7.13317">
        <ele>215.15</ele>
        <time>2013-07-06T15:27:12Z</time>
      </trkpt>
      <trkpt lat="49.07258" lon="7.13291">
        <ele>214.91</ele>
        <time>2013-07-06T15:27:15Z</time>
      </trkpt>
      <trkpt lat="49.07247" lon="7.13265">
        <ele>214.7</ele>
        <time>2013-07-06T15:27:18Z</time>
      </trkpt>
      <trkpt lat="49.07236" lon="7.13239">
        <ele>214.57</ele>
        <time>2013-07-06T15:27:21Z</time>
      </trkpt>
      <trkpt lat="49.07227" lon="7.13212">
        <ele>214.52</ele>
        <time>2013-07-06T15:27:24Z</time>
      </trkpt>
      <trkpt lat="49.07216" lon="7.13186">
        <ele>214.6</ele>
        <time>2013-07-06T15:27:27Z</time>
      </trkpt>
      <trkpt lat="49.07204" lon="7.1316">
        <ele>214.67</ele>
        <time>2013-07-06T15:27:30Z</time>
      </trkpt>
      <trkpt lat="49.07193" lon="7.13134">
        <ele>214.74</ele>
        <time>2013-07-06T15:27:33Z</time>
      </trkpt>
      <trkpt lat="49.07182" lon="7.13108">
        <ele>214.76</ele>
        <time>2013-07-06T15:27:36Z</time>
      </trkpt>
      <trkpt lat="49.07171" lon="7.13082">
        <ele>214.73</ele>
        <time>2013-07-06T15:27:39Z</time>
      </trkpt>
      <trkpt lat="49.0716" lon="7.13057">
        <ele>214.77</ele>
        <time>2013-07-06T15:27:42Z</time>
      </trkpt>
      <trkpt lat="49.07148" lon="7.13032">
        <ele>214.93</ele>
        <time>2013-07-06T15:27:45Z</time>
      </trkpt>
      <trkpt lat="49.0714" lon="7.13005">
        <ele>215.16</ele>
        <time>2013-07-06T15:27:48Z</time>
      </trkpt>
      <trkpt lat="49.07132" lon="7.12976">
        <ele>215.19</ele>
        <time>2013-07-06T15:27:51Z</time>
      </trkpt>
      <trkpt lat="49.07124" lon="7.12948">
        <ele>215.08</ele>
        <time>2013-07-06T15:27:54Z</time>
      </trkpt>
      <trkpt lat="49.07117" lon="7.12918">
        <ele>214.95</ele>
        <time>2013-07-06T15:27:57Z</time>
      </trkpt>
      <trkpt lat="49.0711" lon="7.12889">
        <ele>214.85</ele>
        <time>2013-07-06T15:28:00Z</time>
      </trkpt>
      <trkpt lat="49.07103" lon="7.1286">
        <ele>214.81</ele>
        <time>2013-07-06T15:28:03Z</time>
      </trkpt>
      <trkpt lat="49.07097" lon="7.12832">
        <ele>214.95</ele>
        <time>2013-07-06T15:28:06Z</time>
      </trkpt>
      <trkpt lat="49.07091" lon="7.12804">
        <ele>215.34</ele>
        <time>2013-07-06T15:28:09Z</time>
      </trkpt>
      <trkpt lat="49.07086" lon="7.12775">
        <ele>215.82</ele>
        <time>2013-07-06T15:28:12Z</time>
      </trkpt>
      <trkpt lat="49.0708" lon="7.12747">
        <ele>216.45</ele>
        <time>2013-07-06T15:28:15Z</time>
      </trkpt>
      <trkpt lat="49.07076" lon="7.12715">
        <ele>216.65</ele>
        <time>2013-07-06T15:28:18Z</time>
      </trkpt>
      <trkpt lat="49.07072" lon="7.12685">
        <ele>216.63</ele>
        <time>2013-07-06T15:28:21Z</time>
      </trkpt>
      <trkpt lat="49.07065" lon="7.12658">
        <ele>216.83</ele>
        <time>2013-07-06T15:28:24Z</time>
      </trkpt>
      <trkpt lat="49.0706" lon="7.1263">
        <ele>216.92</ele>
        <time>2013-07-06T15:28:27Z</time>
      </trkpt>
      <trkpt lat="49.07053" lon="7.12601">
        <ele>216.72</ele>
        <time>2013-07-06T15:28:30Z</time>
      </trkpt>
      <trkpt lat="49.07048" lon="7.12572">
        <ele>216.64</ele>
        <time>2013-07-06T15:28:33Z</time>
      </trkpt>
      <trkpt lat="49.07043" lon="7.12543">
        <ele>216.58</ele>
        <time>2013-07-06T15:28:36Z</time>
      </trkpt>
      <trkpt lat="49.07038" lon="7.12512">
        <ele>216.34</ele>
        <time>2013-07-06T15:28:39Z</time>
      </trkpt>
      <trkpt lat="49.07033" lon="7.12482">
        <ele>216.28</ele>
        <time>2013-07-06T15:28:42Z</time>
      </trkpt>
      <trkpt lat="49.07026" lon="7.12452">
        <ele>216.22</ele>
        <time>2013-07-06T15:28:45Z</time>
      </trkpt>
      <trkpt lat="49.07019" lon="7.12423">
        <ele>216.4</ele>
        <time>2013-07-06T15:28:48Z</time>
      </trkpt>
      <trkpt lat="49.07014" lon="7.12391">
        <ele>216.38</ele>
        <time>2013-07-06T15:28:51Z</time>
      </trkpt>
      <trkpt lat="49.07008" lon="7.12361">
        <ele>216.21</ele>
        <time>2013-07-06T15:28:54Z</time>
      </trkpt>
      <trkpt lat="49.07003" lon="7.12331">
        <ele>216.03</ele>
        <time>2013-07-06T15:28:57Z</time>
      </trkpt>
      <trkpt lat="49.06998" lon="7.12299">
        <ele>215.75</ele>
        <time>2013-07-06T15:29:00Z</time>
      </trkpt>
      <trkpt lat="49.06992" lon="7.12269">
        <ele>215.48</ele>
        <time>2013-07-06T15:29:03Z</time>
      </trkpt>
      <trkpt lat="49.06986" lon="7.12239">
        <ele>215.24</ele>
        <time>2013-07-06T15:29:06Z</time>
      </trkpt>
      <trkpt lat="49.06979" lon="7.12209">
        <ele>215.08</ele>
        <time>2013-07-06T15:29:09Z</time>
      </trkpt>
      <trkpt lat="49.06969" lon="7.12183">
        <ele>215.24</ele>
        <time>2013-07-06T15:29:12Z</time>
      </trkpt>
      <trkpt lat="49.0696" lon="7.12157">
        <ele>216.07</ele>
        <time>2013-07-06T15:29:15Z</time>
      </trkpt>
      <trkpt lat="49.06952" lon="7.12129">
        <ele>216.95</ele>
        <time>2013-07-06T15:29:18Z</time>
      </trkpt>
      <trkpt lat="49.06943" lon="7.12098">
        <ele>217.11</ele>
        <time>2013-07-06T15:29:21Z</time>
      </trkpt>
      <trkpt lat="49.06934" lon="7.12071">
        <ele>217.04</ele>
        <time>2013-07-06T15:29:24Z</time>
      </trkpt>
      <trkpt lat="49.06925" lon="7.12044">
        <ele>216.96</ele>
        <time>2013-07-06T15:29:27Z</time>
      </trkpt>
      <trkpt lat="49.06916" lon="7.12016">
        <ele>216.87</ele>
        <time>2013-07-06T15:29:30Z</time>
      </trkpt>
      <trkpt lat="49.06906" lon="7.11989">
        <ele>216.72</ele>
        <time>2013-07-06T15:29:33Z</time>
      </trkpt>
      <trkpt lat="49.06895" lon="7.11963">
        <ele>216.81</ele>
        <time>2013-07-06T15:29:36Z</time>
      </trkpt>
      <trkpt lat="49.06883" lon="7.11937">
        <ele>217.05</ele>
        <time>2013-07-06T15:29:39Z</time>
      </trkpt>
      <trkpt lat="49.06872" lon="7.1191">
        <ele>217.36</ele>
        <time>2013-07-06T15:29:42Z</time>
      </trkpt>
      <trkpt lat="49.06858" lon="7.11884">
        <ele>217.68</ele>
        <time>2013-07-06T15:29:45Z</time>
      </trkpt>
      <trkpt lat="49.06844" lon="7.11858">
        <ele>217.96</ele>
        <time>2013-07-06T15:29:48Z</time>
      </trkpt>
      <trkpt lat="49.06832" lon="7.11832">
        <ele>218.11</ele>
        <time>2013-07-06T15:29:51Z</time>
      </trkpt>
      <trkpt lat="49.06821" lon="7.11806">
        <ele>218.09</ele>
        <time>2013-07-06T15:29:54Z</time>
      </trkpt>
      <trkpt lat="49.06807" lon="7.11782">
        <ele>217.97</ele>
        <time>2013-07-06T15:29:57Z</time>
      </trkpt>
      <trkpt lat="49.06794" lon="7.11758">
        <ele>218.11</ele>
        <time>2013-07-06T15:30:00Z</time>
      </trkpt>
      <trkpt lat="49.06783" lon="7.1173">
        <ele>218.19</ele>
        <time>2013-07-06T15:30:03Z</time>
      </trkpt>
      <trkpt lat="49.06771" lon="7.11703">
        <ele>218.3</ele>
        <time>2013-07-06T15:30:06Z</time>
      </trkpt>
      <trkpt lat="49.06759" lon="7.11677">
        <ele>218.39</ele>
        <time>2013-07-06T15:30:09Z</time>
      </trkpt>
      <trkpt lat="49.06748" lon="7.1165">
        <ele>218.26</ele>
        <time>2013-07-06T15:30:12Z</time>
      </trkpt>
      <trkpt lat="49.06737" lon="7.11622">
        <ele>217.91</ele>
        <time>2013-07-06T15:30:15Z</time>
      </trkpt>
      <trkpt lat="49.06724" lon="7.11596">
        <ele>217.47</ele>
        <time>2013-07-06T15:30:18Z</time>
      </trkpt>
      <trkpt lat="49.0671" lon="7.11571">
        <ele>217.17</ele>
        <time>2013-07-06T15:30:21Z</time>
      </trkpt>
      <trkpt lat="49.06698" lon="7.11545">
        <ele>216.96</ele>
        <time>2013-07-06T15:30:24Z</time>
      </trkpt>
      <trkpt lat="49.06684" lon="7.11521">
        <ele>216.98</ele>
        <time>2013-07-06T15:30:27Z</time>
      </trkpt>
      <trkpt lat="49.06669" lon="7.11498">
        <ele>217.01</ele>
        <time>2013-07-06T15:30:30Z</time>
      </trkpt>
      <trkpt lat="49.06656" lon="7.11475">
        <ele>217.1</ele>
        <time>2013-07-06T15:30:33Z</time>
      </trkpt>
      <trkpt lat="49.06641" lon="7.11452">
        <ele>217.06</ele>
        <time>2013-07-06T15:30:36Z</time>
      </trkpt>
      <trkpt lat="49.06626" lon="7.1143">
        <ele>217.02</ele>
        <time>2013-07-06T15:30:39Z</time>
      </trkpt>
      <trkpt lat="49.0661" lon="7.11409">
        <ele>216.94</ele>
        <time>2013-07-06T15:30:42Z</time>
      </trkpt>
      <trkpt lat="49.06595" lon="7.11388">
        <ele>216.81</ele>
        <time>2013-07-06T15:30:45Z</time>
      </trkpt>
      <trkpt lat="49.06579" lon="7.11366">
        <ele>216.68</ele>
        <time>2013-07-06T15:30:48Z</time>
      </trkpt>
      <trkpt lat="49.06563" lon="7.11346">
        <ele>216.62</ele>
        <time>2013-07-06T15:30:51Z</time>
      </trkpt>
      <trkpt lat="49.06547" lon="7.11328">
        <ele>216.56</ele>
        <time>2013-07-06T15:30:54Z</time>
      </trkpt>
      <trkpt lat="49.0653" lon="7.11311">
        <ele>216.46</ele>
        <time>2013-07-06T15:30:57Z</time>
      </trkpt>
      <trkpt lat="49.06511" lon="7.11296">
        <ele>216.16</ele>
        <time>2013-07-06T15:31:00Z</time>
      </trkpt>
      <trkpt lat="49.06491" lon="7.11287">
        <ele>215.94</ele>
        <time>2013-07-06T15:31:03Z</time>
      </trkpt>
      <trkpt lat="49.06471" lon="7.11281">
        <ele>215.93</ele>
        <time>2013-07-06T15:31:06Z</time>
      </trkpt>
      <trkpt lat="49.0645" lon="7.11278">
        <ele>216.06</ele>
        <time>2013-07-06T15:31:09Z</time>
      </trkpt>
      <trkpt lat="49.0643" lon="7.1128">
        <ele>216.02</ele>
        <time>2013-07-06T15:31:12Z</time>
      </trkpt>
      <trkpt lat="49.06411" lon="7.11283">
        <ele>215.87</ele>
        <time>2013-07-06T15:31:15Z</time>
      </trkpt>
      <trkpt lat="49.0639" lon="7.11292">
        <ele>215.88</ele>
        <time>2013-07-06T15:31:18Z</time>
      </trkpt>
      <trkpt lat="49.06372" lon="7.11301">
        <ele>215.96</ele>
        <time>2013-07-06T15:31:21Z</time>
      </trkpt>
      <trkpt lat="49.06352" lon="7.11313">
        <ele>215.71</ele>
        <time>2013-07-06T15:31:24Z</time>
      </trkpt>
      <trkpt lat="49.06332" lon="7.11325">
        <ele>215.37</ele>
        <time>2013-07-06T15:31:27Z</time>
      </trkpt>
      <trkpt lat="49.06312" lon="7.11336">
        <ele>215.15</ele>
        <time>2013-07-06T15:31:30Z</time>
      </trkpt>
      <trkpt lat="49.06294" lon="7.11347">
        <ele>214.87</ele>
        <time>2013-07-06T15:31:33Z</time>
      </trkpt>
      <trkpt lat="49.06274" lon="7.11358">
        <ele>214.56</ele>
        <time>2013-07-06T15:31:36Z</time>
      </trkpt>
      <trkpt lat="49.06254" lon="7.1137">
        <ele>214.27</ele>
        <time>2013-07-06T15:31:39Z</time>
      </trkpt>
      <trkpt lat="49.06235" lon="7.11381">
        <ele>214.26</ele>
        <time>2013-07-06T15:31:42Z</time>
      </trkpt>
      <trkpt lat="49.06216" lon="7.11391">
        <ele>214.79</ele>
        <time>2013-07-06T15:31:45Z</time>
      </trkpt>
      <trkpt lat="49.06198" lon="7.11402">
        <ele>215.24</ele>
        <time>2013-07-06T15:31:48Z</time>
      </trkpt>
      <trkpt lat="49.0618" lon="7.11413">
        <ele>215.27</ele>
        <time>2013-07-06T15:31:51Z</time>
      </trkpt>
      <trkpt lat="49.06162" lon="7.11421">
        <ele>215.4</ele>
        <time>2013-07-06T15:31:54Z</time>
      </trkpt>
      <trkpt lat="49.06143" lon="7.11433">
        <ele>215</ele>
        <time>2013-07-06T15:31:57Z</time>
      </trkpt>
      <trkpt lat="49.06125" lon="7.11444">
        <ele>214.78</ele>
        <time>2013-07-06T15:32:00Z</time>
      </trkpt>
      <trkpt lat="49.06106" lon="7.11456">
        <ele>214.81</ele>
        <time>2013-07-06T15:32:03Z</time>
      </trkpt>
      <trkpt lat="49.06087" lon="7.11468">
        <ele>214.99</ele>
        <time>2013-07-06T15:32:06Z</time>
      </trkpt>
      <trkpt lat="49.06069" lon="7.1148">
        <ele>215.19</ele>
        <time>2013-07-06T15:32:09Z</time>
      </trkpt>
      <trkpt lat="49.06051" lon="7.11493">
        <ele>215.18</ele>
        <time>2013-07-06T15:32:12Z</time>
      </trkpt>
      <trkpt lat="49.06034" lon="7.11511">
        <ele>214.99</ele>
        <time>2013-07-06T15:32:15Z</time>
      </trkpt>
      <trkpt lat="49.06018" lon="7.11532">
        <ele>214.34</ele>
        <time>2013-07-06T15:32:18Z</time>
      </trkpt>
      <trkpt lat="49.06003" lon="7.11552">
        <ele>214.08</ele>
        <time>2013-07-06T15:32:21Z</time>
      </trkpt>
      <trkpt lat="49.05989" lon="7.11573">
        <ele>214.14</ele>
        <time>2013-07-06T15:32:24Z</time>
      </trkpt>
      <trkpt lat="49.05976" lon="7.11595">
        <ele>214.19</ele>
        <time>2013-07-06T15:32:27Z</time>
      </trkpt>
      <trkpt lat="49.05965" lon="7.11621">
        <ele>214.04</ele>
        <time>2013-07-06T15:32:30Z</time>
      </trkpt>
      <trkpt lat="49.05956" lon="7.11648">
        <ele>214.07</ele>
        <time>2013-07-06T15:32:33Z</time>
      </trkpt>
      <trkpt lat="49.05948" lon="7.11675">
        <ele>214.7</ele>
        <time>2013-07-06T15:32:36Z</time>
      </trkpt>
      <trkpt lat="49.05941" lon="7.11703">
        <ele>215.75</ele>
        <time>2013-07-06T15:32:39Z</time>
      </trkpt>
      <trkpt lat="49.05935" lon="7.1173">
        <ele>216.8</ele>
        <time>2013-07-06T15:32:42Z</time>
      </trkpt>
      <trkpt lat="49.05932" lon="7.11758">
        <ele>217.45</ele>
        <time>2013-07-06T15:32:45Z</time>
      </trkpt>
      <trkpt lat="49.0593" lon="7.11788">
        <ele>217.93</ele>
        <time>2013-07-06T15:32:48Z</time>
      </trkpt>
      <trkpt lat="49.05929" lon="7.11818">
        <ele>218.31</ele>
        <time>2013-07-06T15:32:51Z</time>
      </trkpt>
      <trkpt lat="49.05929" lon="7.11848">
        <ele>218.91</ele>
        <time>2013-07-06T15:32:54Z</time>
      </trkpt>
      <trkpt lat="49.05929" lon="7.11877">
        <ele>219.87</ele>
        <time>2013-07-06T15:32:57Z</time>
      </trkpt>
      <trkpt lat="49.0593" lon="7.11905">
        <ele>221.03</ele>
        <time>2013-07-06T15:33:00Z</time>
      </trkpt>
      <trkpt lat="49.0593" lon="7.11933">
        <ele>222.13</ele>
        <time>2013-07-06T15:33:03Z</time>
      </trkpt>
      <trkpt lat="49.05931" lon="7.11964">
        <ele>223.48</ele>
        <time>2013-07-06T15:33:06Z</time>
      </trkpt>
      <trkpt lat="49.05931" lon="7.11995">
        <ele>224.62</ele>
        <time>2013-07-06T15:33:09Z</time>
      </trkpt>
      <trkpt lat="49.05932" lon="7.12025">
        <ele>225.89</ele>
        <time>2013-07-06T15:33:12Z</time>
      </trkpt>
      <trkpt lat="49.05932" lon="7.12055">
        <ele>227.45</ele>
        <time>2013-07-06T15:33:15Z</time>
      </trkpt>
      <trkpt lat="49.05931" lon="7.12084">
        <ele>228.69</ele>
        <time>2013-07-06T15:33:18Z</time>
      </trkpt>
      <trkpt lat="49.05932" lon="7.12116">
        <ele>230.57</ele>
        <time>2013-07-06T15:33:21Z</time>
      </trkpt>
      <trkpt lat="49.05934" lon="7.12149">
        <ele>231.4</ele>
        <time>2013-07-06T15:33:24Z</time>
      </trkpt>
      <trkpt lat="49.05933" lon="7.1218">
        <ele>229.9</ele>
        <time>2013-07-06T15:33:27Z</time>
      </trkpt>
      <trkpt lat="49.05933" lon="7.12211">
        <ele>229.17</ele>
        <time>2013-07-06T15:33:30Z</time>
      </trkpt>
      <trkpt lat="49.05932" lon="7.12241">
        <ele>227.84</ele>
        <time>2013-07-06T15:33:33Z</time>
      </trkpt>
      <trkpt lat="49.05931" lon="7.12271">
        <ele>226.37</ele>
        <time>2013-07-06T15:33:36Z</time>
      </trkpt>
      <trkpt lat="49.05928" lon="7.123">
        <ele>225.18</ele>
        <time>2013-07-06T15:33:39Z</time>
      </trkpt>
      <trkpt lat="49.05927" lon="7.12329">
        <ele>224.39</ele>
        <time>2013-07-06T15:33:42Z</time>
      </trkpt>
      <trkpt lat="49.05925" lon="7.1236">
        <ele>223.67</ele>
        <time>2013-07-06T15:33:45Z</time>
      </trkpt>
      <trkpt lat="49.05924" lon="7.12391">
        <ele>222.16</ele>
        <time>2013-07-06T15:33:48Z</time>
      </trkpt>
      <trkpt lat="49.05922" lon="7.12422">
        <ele>220.39</ele>
        <time>2013-07-06T15:33:51Z</time>
      </trkpt>
      <trkpt lat="49.05918" lon="7.12452">
        <ele>219.29</ele>
        <time>2013-07-06T15:33:54Z</time>
      </trkpt>
      <trkpt lat="49.05914" lon="7.12481">
        <ele>219.46</ele>
        <time>2013-07-06T15:33:57Z</time>
      </trkpt>
      <trkpt lat="49.05911" lon="7.12509">
        <ele>219.51</ele>
        <time>2013-07-06T15:34:00Z</time>
      </trkpt>
      <trkpt lat="49.05908" lon="7.12537">
        <ele>219.8</ele>
        <time>2013-07-06T15:34:03Z</time>
      </trkpt>
      <trkpt lat="49.05903" lon="7.12565">
        <ele>220.14</ele>
        <time>2013-07-06T15:34:06Z</time>
      </trkpt>
      <trkpt lat="49.059" lon="7.12595">
        <ele>220.31</ele>
        <time>2013-07-06T15:34:09Z</time>
      </trkpt>
      <trkpt lat="49.05896" lon="7.12626">
        <ele>220.1</ele>
        <time>2013-07-06T15:34:12Z</time>
      </trkpt>
      <trkpt lat="49.05892" lon="7.12654">
        <ele>219.82</ele>
        <time>2013-07-06T15:34:15Z</time>
      </trkpt>
      <trkpt lat="49.05888" lon="7.12683">
        <ele>219.46</ele>
        <time>2013-07-06T15:34:18Z</time>
      </trkpt>
      <trkpt lat="49.05884" lon="7.12711">
        <ele>218.91</ele>
        <time>2013-07-06T15:34:21Z</time>
      </trkpt>
      <trkpt lat="49.0588" lon="7.1274">
        <ele>218.57</ele>
        <time>2013-07-06T15:34:24Z</time>
      </trkpt>
      <trkpt lat="49.05876" lon="7.12769">
        <ele>218.2</ele>
        <time>2013-07-06T15:34:27Z</time>
      </trkpt>
      <trkpt lat="49.05871" lon="7.12799">
        <ele>218.04</ele>
        <time>2013-07-06T15:34:30Z</time>
      </trkpt>
      <trkpt lat="49.05867" lon="7.12828">
        <ele>218.5</ele>
        <time>2013-07-06T15:34:33Z</time>
      </trkpt>
      <trkpt lat="49.05862" lon="7.12856">
        <ele>218.98</ele>
        <time>2013-07-06T15:34:36Z</time>
      </trkpt>
      <trkpt lat="49.05859" lon="7.12891">
        <ele>219.97</ele>
        <time>2013-07-06T15:34:40Z</time>
      </trkpt>
      <trkpt lat="49.05854" lon="7.12922">
        <ele>220.47</ele>
        <time>2013-07-06T15:34:43Z</time>
      </trkpt>
      <trkpt lat="49.05849" lon="7.12951">
        <ele>220.69</ele>
        <time>2013-07-06T15:34:46Z</time>
      </trkpt>
      <trkpt lat="49.05845" lon="7.12979">
        <ele>220.99</ele>
        <time>2013-07-06T15:34:49Z</time>
      </trkpt>
      <trkpt lat="49.05841" lon="7.13008">
        <ele>220.34</ele>
        <time>2013-07-06T15:34:52Z</time>
      </trkpt>
      <trkpt lat="49.05836" lon="7.13036">
        <ele>219.63</ele>
        <time>2013-07-06T15:34:55Z</time>
      </trkpt>
      <trkpt lat="49.05832" lon="7.13065">
        <ele>219.21</ele>
        <time>2013-07-06T15:34:58Z</time>
      </trkpt>
      <trkpt lat="49.05828" lon="7.13092">
        <ele>219.26</ele>
        <time>2013-07-06T15:35:01Z</time>
      </trkpt>
      <trkpt lat="49.05824" lon="7.13119">
        <ele>219.4</ele>
        <time>2013-07-06T15:35:04Z</time>
      </trkpt>
      <trkpt lat="49.05819" lon="7.13147">
        <ele>219.34</ele>
        <time>2013-07-06T15:35:07Z</time>
      </trkpt>
      <trkpt lat="49.05815" lon="7.13174">
        <ele>219.38</ele>
        <time>2013-07-06T15:35:10Z</time>
      </trkpt>
      <trkpt lat="49.05811" lon="7.13203">
        <ele>219.46</ele>
        <time>2013-07-06T15:35:13Z</time>
      </trkpt>
      <trkpt lat="49.05807" lon="7.13233">
        <ele>219.44</ele>
        <time>2013-07-06T15:35:16Z</time>
      </trkpt>
      <trkpt lat="49.05803" lon="7.13263">
        <ele>219.06</ele>
        <time>2013-07-06T15:35:19Z</time>
      </trkpt>
      <trkpt lat="49.05798" lon="7.13292">
        <ele>219.09</ele>
        <time>2013-07-06T15:35:22Z</time>
      </trkpt>
      <trkpt lat="49.05794" lon="7.13321">
        <ele>219.14</ele>
        <time>2013-07-06T15:35:25Z</time>
      </trkpt>
      <trkpt lat="49.05789" lon="7.1335">
        <ele>218.98</ele>
        <time>2013-07-06T15:35:28Z</time>
      </trkpt>
      <trkpt lat="49.05786" lon="7.13379">
        <ele>218.72</ele>
        <time>2013-07-06T15:35:31Z</time>
      </trkpt>
      <trkpt lat="49.05782" lon="7.13408">
        <ele>218.58</ele>
        <time>2013-07-06T15:35:34Z</time>
      </trkpt>
      <trkpt lat="49.05777" lon="7.13436">
        <ele>218.42</ele>
        <time>2013-07-06T15:35:37Z</time>
      </trkpt>
      <trkpt lat="49.05773" lon="7.13463">
        <ele>218.22</ele>
        <time>2013-07-06T15:35:40Z</time>
      </trkpt>
      <trkpt lat="49.05768" lon="7.13498">
        <ele>217.89</ele>
        <time>2013-07-06T15:35:44Z</time>
      </trkpt>
      <trkpt lat="49.05763" lon="7.13533">
        <ele>217.66</ele>
        <time>2013-07-06T15:35:48Z</time>
      </trkpt>
      <trkpt lat="49.05758" lon="7.1356">
        <ele>217.51</ele>
        <time>2013-07-06T15:35:51Z</time>
      </trkpt>
      <trkpt lat="49.05754" lon="7.13588">
        <ele>217.36</ele>
        <time>2013-07-06T15:35:54Z</time>
      </trkpt>
      <trkpt lat="49.0575" lon="7.13616">
        <ele>217.28</ele>
        <time>2013-07-06T15:35:57Z</time>
      </trkpt>
      <trkpt lat="49.05745" lon="7.13643">
        <ele>217.41</ele>
        <time>2013-07-06T15:36:00Z</time>
      </trkpt>
      <trkpt lat="49.05741" lon="7.13671">
        <ele>217.49</ele>
        <time>2013-07-06T15:36:03Z</time>
      </trkpt>
      <trkpt lat="49.05737" lon="7.13699">
        <ele>217.47</ele>
        <time>2013-07-06T15:36:06Z</time>
      </trkpt>
      <trkpt lat="49.05732" lon="7.13728">
        <ele>217.58</ele>
        <time>2013-07-06T15:36:09Z</time>
      </trkpt>
      <trkpt lat="49.05728" lon="7.13756">
        <ele>217.71</ele>
        <time>2013-07-06T15:36:12Z</time>
      </trkpt>
      <trkpt lat="49.05724" lon="7.13784">
        <ele>217.99</ele>
        <time>2013-07-06T15:36:15Z</time>
      </trkpt>
      <trkpt lat="49.05719" lon="7.13819">
        <ele>218.43</ele>
        <time>2013-07-06T15:36:19Z</time>
      </trkpt>
      <trkpt lat="49.05715" lon="7.13846">
        <ele>218.51</ele>
        <time>2013-07-06T15:36:22Z</time>
      </trkpt>
      <trkpt lat="49.0571" lon="7.13881">
        <ele>218.25</ele>
        <time>2013-07-06T15:36:26Z</time>
      </trkpt>
      <trkpt lat="49.05706" lon="7.13908">
        <ele>218.05</ele>
        <time>2013-07-06T15:36:29Z</time>
      </trkpt>
      <trkpt lat="49.05702" lon="7.13935">
        <ele>217.96</ele>
        <time>2013-07-06T15:36:32Z</time>
      </trkpt>
      <trkpt lat="49.05698" lon="7.13962">
        <ele>217.86</ele>
        <time>2013-07-06T15:36:35Z</time>
      </trkpt>
      <trkpt lat="49.05694" lon="7.13989">
        <ele>217.73</ele>
        <time>2013-07-06T15:36:38Z</time>
      </trkpt>
      <trkpt lat="49.0569" lon="7.14016">
        <ele>217.63</ele>
        <time>2013-07-06T15:36:41Z</time>
      </trkpt>
      <trkpt lat="49.05686" lon="7.14042">
        <ele>217.7</ele>
        <time>2013-07-06T15:36:44Z</time>
      </trkpt>
      <trkpt lat="49.05682" lon="7.14069">
        <ele>217.81</ele>
        <time>2013-07-06T15:36:47Z</time>
      </trkpt>
      <trkpt lat="49.05678" lon="7.14097">
        <ele>217.85</ele>
        <time>2013-07-06T15:36:50Z</time>
      </trkpt>
      <trkpt lat="49.05674" lon="7.14125">
        <ele>217.87</ele>
        <time>2013-07-06T15:36:53Z</time>
      </trkpt>
      <trkpt lat="49.05669" lon="7.14153">
        <ele>217.88</ele>
        <time>2013-07-06T15:36:56Z</time>
      </trkpt>
      <trkpt lat="49.05665" lon="7.1418">
        <ele>217.81</ele>
        <time>2013-07-06T15:36:59Z</time>
      </trkpt>
      <trkpt lat="49.05661" lon="7.14207">
        <ele>217.6</ele>
        <time>2013-07-06T15:37:02Z</time>
      </trkpt>
      <trkpt lat="49.05657" lon="7.14234">
        <ele>217.39</ele>
        <time>2013-07-06T15:37:05Z</time>
      </trkpt>
      <trkpt lat="49.05652" lon="7.14269">
        <ele>217.25</ele>
        <time>2013-07-06T15:37:09Z</time>
      </trkpt>
      <trkpt lat="49.05647" lon="7.14302">
        <ele>217.2</ele>
        <time>2013-07-06T15:37:13Z</time>
      </trkpt>
      <trkpt lat="49.05642" lon="7.14336">
        <ele>217.3</ele>
        <time>2013-07-06T15:37:17Z</time>
      </trkpt>
      <trkpt lat="49.05637" lon="7.14371">
        <ele>217.71</ele>
        <time>2013-07-06T15:37:21Z</time>
      </trkpt>
      <trkpt lat="49.05631" lon="7.14405">
        <ele>218.35</ele>
        <time>2013-07-06T15:37:25Z</time>
      </trkpt>
      <trkpt lat="49.05627" lon="7.1444">
        <ele>219.07</ele>
        <time>2013-07-06T15:37:29Z</time>
      </trkpt>
      <trkpt lat="49.05621" lon="7.14475">
        <ele>219.62</ele>
        <time>2013-07-06T15:37:33Z</time>
      </trkpt>
      <trkpt lat="49.05616" lon="7.14502">
        <ele>219.78</ele>
        <time>2013-07-06T15:37:36Z</time>
      </trkpt>
      <trkpt lat="49.05611" lon="7.14538">
        <ele>219.97</ele>
        <time>2013-07-06T15:37:40Z</time>
      </trkpt>
      <trkpt lat="49.05606" lon="7.14573">
        <ele>220.23</ele>
        <time>2013-07-06T15:37:44Z</time>
      </trkpt>
      <trkpt lat="49.05602" lon="7.146">
        <ele>220.22</ele>
        <time>2013-07-06T15:37:47Z</time>
      </trkpt>
      <trkpt lat="49.05598" lon="7.14627">
        <ele>220.06</ele>
        <time>2013-07-06T15:37:50Z</time>
      </trkpt>
      <trkpt lat="49.05592" lon="7.14654">
        <ele>219.76</ele>
        <time>2013-07-06T15:37:53Z</time>
      </trkpt>
      <trkpt lat="49.05587" lon="7.14681">
        <ele>219.45</ele>
        <time>2013-07-06T15:37:56Z</time>
      </trkpt>
      <trkpt lat="49.0558" lon="7.14707">
        <ele>219.14</ele>
        <time>2013-07-06T15:37:59Z</time>
      </trkpt>
      <trkpt lat="49.05573" lon="7.14732">
        <ele>218.91</ele>
        <time>2013-07-06T15:38:02Z</time>
      </trkpt>
      <trkpt lat="49.05565" lon="7.14757">
        <ele>218.72</ele>
        <time>2013-07-06T15:38:05Z</time>
      </trkpt>
      <trkpt lat="49.05553" lon="7.14789">
        <ele>218.53</ele>
        <time>2013-07-06T15:38:09Z</time>
      </trkpt>
      <trkpt lat="49.05541" lon="7.14819">
        <ele>218.52</ele>
        <time>2013-07-06T15:38:13Z</time>
      </trkpt>
      <trkpt lat="49.05527" lon="7.14848">
        <ele>218.52</ele>
        <time>2013-07-06T15:38:17Z</time>
      </trkpt>
      <trkpt lat="49.05516" lon="7.14869">
        <ele>218.5</ele>
        <time>2013-07-06T15:38:20Z</time>
      </trkpt>
      <trkpt lat="49.05498" lon="7.14893">
        <ele>218.49</ele>
        <time>2013-07-06T15:38:24Z</time>
      </trkpt>
      <trkpt lat="49.05479" lon="7.14911">
        <ele>218.59</ele>
        <time>2013-07-06T15:38:28Z</time>
      </trkpt>
      <trkpt lat="49.05457" lon="7.14925">
        <ele>218.57</ele>
        <time>2013-07-06T15:38:32Z</time>
      </trkpt>
      <trkpt lat="49.05435" lon="7.14934">
        <ele>218.25</ele>
        <time>2013-07-06T15:38:36Z</time>
      </trkpt>
      <trkpt lat="49.05412" lon="7.14936">
        <ele>218</ele>
        <time>2013-07-06T15:38:40Z</time>
      </trkpt>
      <trkpt lat="49.0539" lon="7.14934">
        <ele>217.88</ele>
        <time>2013-07-06T15:38:44Z</time>
      </trkpt>
      <trkpt lat="49.05368" lon="7.14928">
        <ele>218.32</ele>
        <time>2013-07-06T15:38:48Z</time>
      </trkpt>
      <trkpt lat="49.05349" lon="7.14917">
        <ele>219.46</ele>
        <time>2013-07-06T15:38:52Z</time>
      </trkpt>
      <trkpt lat="49.05331" lon="7.14907">
        <ele>220.75</ele>
        <time>2013-07-06T15:38:57Z</time>
      </trkpt>
      <trkpt lat="49.05316" lon="7.14931">
        <ele>221.91</ele>
        <time>2013-07-06T15:39:06Z</time>
      </trkpt>
      <trkpt lat="49.05314" lon="7.14964">
        <ele>222.28</ele>
        <time>2013-07-06T15:39:11Z</time>
      </trkpt>
      <trkpt lat="49.05315" lon="7.14994">
        <ele>222.35</ele>
        <time>2013-07-06T15:39:15Z</time>
      </trkpt>
      <trkpt lat="49.05317" lon="7.15025">
        <ele>222.19</ele>
        <time>2013-07-06T15:39:19Z</time>
      </trkpt>
      <trkpt lat="49.05318" lon="7.15056">
        <ele>222.03</ele>
        <time>2013-07-06T15:39:23Z</time>
      </trkpt>
      <trkpt lat="49.05319" lon="7.15085">
        <ele>221.98</ele>
        <time>2013-07-06T15:39:28Z</time>
      </trkpt>
      <trkpt lat="49.0534" lon="7.15091">
        <ele>221.77</ele>
        <time>2013-07-06T15:39:35Z</time>
      </trkpt>
      <trkpt lat="49.05361" lon="7.15077">
        <ele>221.61</ele>
        <time>2013-07-06T15:39:39Z</time>
      </trkpt>
      <trkpt lat="49.05379" lon="7.15069">
        <ele>221.75</ele>
        <time>2013-07-06T15:39:42Z</time>
      </trkpt>
      <trkpt lat="49.05398" lon="7.15062">
        <ele>221.84</ele>
        <time>2013-07-06T15:39:45Z</time>
      </trkpt>
      <trkpt lat="49.05416" lon="7.15054">
        <ele>222.02</ele>
        <time>2013-07-06T15:39:48Z</time>
      </trkpt>
      <trkpt lat="49.05435" lon="7.15046">
        <ele>222.21</ele>
        <time>2013-07-06T15:39:51Z</time>
      </trkpt>
      <trkpt lat="49.05454" lon="7.15039">
        <ele>222.35</ele>
        <time>2013-07-06T15:39:54Z</time>
      </trkpt>
      <trkpt lat="49.05472" lon="7.15031">
        <ele>222.19</ele>
        <time>2013-07-06T15:39:57Z</time>
      </trkpt>
      <trkpt lat="49.0549" lon="7.15024">
        <ele>221.61</ele>
        <time>2013-07-06T15:40:00Z</time>
      </trkpt>
      <trkpt lat="49.05512" lon="7.15011">
        <ele>221.37</ele>
        <time>2013-07-06T15:40:04Z</time>
      </trkpt>
      <trkpt lat="49.05531" lon="7.14996">
        <ele>221.53</ele>
        <time>2013-07-06T15:40:08Z</time>
      </trkpt>
      <trkpt lat="49.05549" lon="7.14979">
        <ele>222.01</ele>
        <time>2013-07-06T15:40:12Z</time>
      </trkpt>
      <trkpt lat="49.05566" lon="7.14959">
        <ele>222.13</ele>
        <time>2013-07-06T15:40:16Z</time>
      </trkpt>
      <trkpt lat="49.05582" lon="7.14938">
        <ele>222.12</ele>
        <time>2013-07-06T15:40:20Z</time>
      </trkpt>
      <trkpt lat="49.05597" lon="7.14915">
        <ele>222.26</ele>
        <time>2013-07-06T15:40:24Z</time>
      </trkpt>
      <trkpt lat="49.05611" lon="7.14892">
        <ele>222.94</ele>
        <time>2013-07-06T15:40:28Z</time>
      </trkpt>
      <trkpt lat="49.05625" lon="7.14871">
        <ele>223.78</ele>
        <time>2013-07-06T15:40:32Z</time>
      </trkpt>
      <trkpt lat="49.05638" lon="7.1485">
        <ele>224.58</ele>
        <time>2013-07-06T15:40:36Z</time>
      </trkpt>
      <trkpt lat="49.05651" lon="7.14828">
        <ele>225.11</ele>
        <time>2013-07-06T15:40:40Z</time>
      </trkpt>
      <trkpt lat="49.05663" lon="7.14804">
        <ele>225.26</ele>
        <time>2013-07-06T15:40:44Z</time>
      </trkpt>
      <trkpt lat="49.05675" lon="7.14778">
        <ele>225.48</ele>
        <time>2013-07-06T15:40:49Z</time>
      </trkpt>
      <trkpt lat="49.05686" lon="7.14755">
        <ele>225.74</ele>
        <time>2013-07-06T15:40:53Z</time>
      </trkpt>
      <trkpt lat="49.05697" lon="7.14729">
        <ele>225.59</ele>
        <time>2013-07-06T15:40:57Z</time>
      </trkpt>
      <trkpt lat="49.05708" lon="7.14703">
        <ele>225.35</ele>
        <time>2013-07-06T15:41:01Z</time>
      </trkpt>
      <trkpt lat="49.05717" lon="7.14678">
        <ele>225.2</ele>
        <time>2013-07-06T15:41:05Z</time>
      </trkpt>
      <trkpt lat="49.05725" lon="7.14652">
        <ele>225.3</ele>
        <time>2013-07-06T15:41:09Z</time>
      </trkpt>
      <trkpt lat="49.05734" lon="7.14625">
        <ele>225.07</ele>
        <time>2013-07-06T15:41:13Z</time>
      </trkpt>
      <trkpt lat="49.05741" lon="7.14599">
        <ele>225.07</ele>
        <time>2013-07-06T15:41:17Z</time>
      </trkpt>
      <trkpt lat="49.05751" lon="7.14569">
        <ele>225.98</ele>
        <time>2013-07-06T15:41:22Z</time>
      </trkpt>
      <trkpt lat="49.05759" lon="7.14544">
        <ele>226.95</ele>
        <time>2013-07-06T15:41:27Z</time>
      </trkpt>
      <trkpt lat="49.05769" lon="7.14519">
        <ele>228.12</ele>
        <time>2013-07-06T15:41:33Z</time>
      </trkpt>
      <trkpt lat="49.05779" lon="7.14493">
        <ele>228.71</ele>
        <time>2013-07-06T15:41:39Z</time>
      </trkpt>
      <trkpt lat="49.05789" lon="7.14466">
        <ele>229.35</ele>
        <time>2013-07-06T15:41:45Z</time>
      </trkpt>
      <trkpt lat="49.058" lon="7.14439">
        <ele>231.05</ele>
        <time>2013-07-06T15:41:51Z</time>
      </trkpt>
      <trkpt lat="49.05814" lon="7.14414">
        <ele>233.38</ele>
        <time>2013-07-06T15:41:57Z</time>
      </trkpt>
      <trkpt lat="49.0583" lon="7.14392">
        <ele>235.55</ele>
        <time>2013-07-06T15:42:03Z</time>
      </trkpt>
      <trkpt lat="49.05843" lon="7.14372">
        <ele>237.14</ele>
        <time>2013-07-06T15:42:08Z</time>
      </trkpt>
      <trkpt lat="49.05856" lon="7.1435">
        <ele>238.84</ele>
        <time>2013-07-06T15:42:13Z</time>
      </trkpt>
      <trkpt lat="49.05867" lon="7.14326">
        <ele>240.33</ele>
        <time>2013-07-06T15:42:18Z</time>
      </trkpt>
      <trkpt lat="49.05878" lon="7.14302">
        <ele>241.98</ele>
        <time>2013-07-06T15:42:23Z</time>
      </trkpt>
      <trkpt lat="49.05889" lon="7.14277">
        <ele>243.03</ele>
        <time>2013-07-06T15:42:28Z</time>
      </trkpt>
      <trkpt lat="49.059" lon="7.14254">
        <ele>243.82</ele>
        <time>2013-07-06T15:42:33Z</time>
      </trkpt>
      <trkpt lat="49.0591" lon="7.14229">
        <ele>244.99</ele>
        <time>2013-07-06T15:42:38Z</time>
      </trkpt>
      <trkpt lat="49.05919" lon="7.14203">
        <ele>246.32</ele>
        <time>2013-07-06T15:42:43Z</time>
      </trkpt>
      <trkpt lat="49.05928" lon="7.14174">
        <ele>247.21</ele>
        <time>2013-07-06T15:42:48Z</time>
      </trkpt>
      <trkpt lat="49.05935" lon="7.14149">
        <ele>247.53</ele>
        <time>2013-07-06T15:42:52Z</time>
      </trkpt>
      <trkpt lat="49.05942" lon="7.14121">
        <ele>247.52</ele>
        <time>2013-07-06T15:42:56Z</time>
      </trkpt>
      <trkpt lat="49.0595" lon="7.14091">
        <ele>247.5</ele>
        <time>2013-07-06T15:43:00Z</time>
      </trkpt>
      <trkpt lat="49.05959" lon="7.14059">
        <ele>247.49</ele>
        <time>2013-07-06T15:43:04Z</time>
      </trkpt>
      <trkpt lat="49.05967" lon="7.14028">
        <ele>247.55</ele>
        <time>2013-07-06T15:43:08Z</time>
      </trkpt>
      <trkpt lat="49.05975" lon="7.13996">
        <ele>248.02</ele>
        <time>2013-07-06T15:43:12Z</time>
      </trkpt>
      <trkpt lat="49.05984" lon="7.13964">
        <ele>248.51</ele>
        <time>2013-07-06T15:43:16Z</time>
      </trkpt>
      <trkpt lat="49.05992" lon="7.13931">
        <ele>248.87</ele>
        <time>2013-07-06T15:43:20Z</time>
      </trkpt>
      <trkpt lat="49.06001" lon="7.13899">
        <ele>249.05</ele>
        <time>2013-07-06T15:43:24Z</time>
      </trkpt>
      <trkpt lat="49.06009" lon="7.13867">
        <ele>249.14</ele>
        <time>2013-07-06T15:43:28Z</time>
      </trkpt>
      <trkpt lat="49.06017" lon="7.13835">
        <ele>249.37</ele>
        <time>2013-07-06T15:43:32Z</time>
      </trkpt>
      <trkpt lat="49.06026" lon="7.13804">
        <ele>249.62</ele>
        <time>2013-07-06T15:43:36Z</time>
      </trkpt>
      <trkpt lat="49.06034" lon="7.13772">
        <ele>249.88</ele>
        <time>2013-07-06T15:43:40Z</time>
      </trkpt>
      <trkpt lat="49.06041" lon="7.13741">
        <ele>250.08</ele>
        <time>2013-07-06T15:43:44Z</time>
      </trkpt>
      <trkpt lat="49.06045" lon="7.13706">
        <ele>249.82</ele>
        <time>2013-07-06T15:43:48Z</time>
      </trkpt>
      <trkpt lat="49.06046" lon="7.13674">
        <ele>249.37</ele>
        <time>2013-07-06T15:43:51Z</time>
      </trkpt>
      <trkpt lat="49.06047" lon="7.13639">
        <ele>248.73</ele>
        <time>2013-07-06T15:43:54Z</time>
      </trkpt>
      <trkpt lat="49.06047" lon="7.13602">
        <ele>247.92</ele>
        <time>2013-07-06T15:43:57Z</time>
      </trkpt>
      <trkpt lat="49.06048" lon="7.13564">
        <ele>247.08</ele>
        <time>2013-07-06T15:44:00Z</time>
      </trkpt>
      <trkpt lat="49.06048" lon="7.13526">
        <ele>246.28</ele>
        <time>2013-07-06T15:44:03Z</time>
      </trkpt>
      <trkpt lat="49.06049" lon="7.13488">
        <ele>245.4</ele>
        <time>2013-07-06T15:44:06Z</time>
      </trkpt>
      <trkpt lat="49.06049" lon="7.13448">
        <ele>244.52</ele>
        <time>2013-07-06T15:44:09Z</time>
      </trkpt>
      <trkpt lat="49.0605" lon="7.13408">
        <ele>243.63</ele>
        <time>2013-07-06T15:44:12Z</time>
      </trkpt>
      <trkpt lat="49.06051" lon="7.13366">
        <ele>242.63</ele>
        <time>2013-07-06T15:44:15Z</time>
      </trkpt>
      <trkpt lat="49.06052" lon="7.13339">
        <ele>241.97</ele>
        <time>2013-07-06T15:44:17Z</time>
      </trkpt>
      <trkpt lat="49.06053" lon="7.13311">
        <ele>241.18</ele>
        <time>2013-07-06T15:44:19Z</time>
      </trkpt>
      <trkpt lat="49.06055" lon="7.13272">
        <ele>240.23</ele>
        <time>2013-07-06T15:44:22Z</time>
      </trkpt>
      <trkpt lat="49.06058" lon="7.13232">
        <ele>239.49</ele>
        <time>2013-07-06T15:44:25Z</time>
      </trkpt>
      <trkpt lat="49.06062" lon="7.13193">
        <ele>238.8</ele>
        <time>2013-07-06T15:44:28Z</time>
      </trkpt>
      <trkpt lat="49.06066" lon="7.13154">
        <ele>238.13</ele>
        <time>2013-07-06T15:44:31Z</time>
      </trkpt>
      <trkpt lat="49.06072" lon="7.13118">
        <ele>237.56</ele>
        <time>2013-07-06T15:44:34Z</time>
      </trkpt>
      <trkpt lat="49.06077" lon="7.13082">
        <ele>237.06</ele>
        <time>2013-07-06T15:44:37Z</time>
      </trkpt>
      <trkpt lat="49.06082" lon="7.13047">
        <ele>236.7</ele>
        <time>2013-07-06T15:44:40Z</time>
      </trkpt>
      <trkpt lat="49.06087" lon="7.13014">
        <ele>236.39</ele>
        <time>2013-07-06T15:44:43Z</time>
      </trkpt>
      <trkpt lat="49.06092" lon="7.12981">
        <ele>236.13</ele>
        <time>2013-07-06T15:44:46Z</time>
      </trkpt>
      <trkpt lat="49.06097" lon="7.12949">
        <ele>235.83</ele>
        <time>2013-07-06T15:44:49Z</time>
      </trkpt>
      <trkpt lat="49.06101" lon="7.12918">
        <ele>235.38</ele>
        <time>2013-07-06T15:44:52Z</time>
      </trkpt>
      <trkpt lat="49.06106" lon="7.12888">
        <ele>234.78</ele>
        <time>2013-07-06T15:44:55Z</time>
      </trkpt>
      <trkpt lat="49.06111" lon="7.12858">
        <ele>234.2</ele>
        <time>2013-07-06T15:44:58Z</time>
      </trkpt>
      <trkpt lat="49.06116" lon="7.12828">
        <ele>233.52</ele>
        <time>2013-07-06T15:45:01Z</time>
      </trkpt>
      <trkpt lat="49.06121" lon="7.12796">
        <ele>232.91</ele>
        <time>2013-07-06T15:45:04Z</time>
      </trkpt>
      <trkpt lat="49.06127" lon="7.12764">
        <ele>232.44</ele>
        <time>2013-07-06T15:45:07Z</time>
      </trkpt>
      <trkpt lat="49.06133" lon="7.12734">
        <ele>232.05</ele>
        <time>2013-07-06T15:45:10Z</time>
      </trkpt>
      <trkpt lat="49.0614" lon="7.12704">
        <ele>231.65</ele>
        <time>2013-07-06T15:45:13Z</time>
      </trkpt>
      <trkpt lat="49.06147" lon="7.12674">
        <ele>231.31</ele>
        <time>2013-07-06T15:45:16Z</time>
      </trkpt>
      <trkpt lat="49.06154" lon="7.12645">
        <ele>231.1</ele>
        <time>2013-07-06T15:45:19Z</time>
      </trkpt>
      <trkpt lat="49.06161" lon="7.12617">
        <ele>231</ele>
        <time>2013-07-06T15:45:22Z</time>
      </trkpt>
      <trkpt lat="49.06167" lon="7.1259">
        <ele>231.26</ele>
        <time>2013-07-06T15:45:25Z</time>
      </trkpt>
      <trkpt lat="49.06174" lon="7.12562">
        <ele>231.66</ele>
        <time>2013-07-06T15:45:28Z</time>
      </trkpt>
      <trkpt lat="49.06181" lon="7.12535">
        <ele>231.93</ele>
        <time>2013-07-06T15:45:31Z</time>
      </trkpt>
      <trkpt lat="49.0619" lon="7.12508">
        <ele>232.13</ele>
        <time>2013-07-06T15:45:34Z</time>
      </trkpt>
      <trkpt lat="49.06201" lon="7.12483">
        <ele>232.12</ele>
        <time>2013-07-06T15:45:37Z</time>
      </trkpt>
      <trkpt lat="49.06212" lon="7.1246">
        <ele>232</ele>
        <time>2013-07-06T15:45:40Z</time>
      </trkpt>
      <trkpt lat="49.06223" lon="7.12439">
        <ele>231.91</ele>
        <time>2013-07-06T15:45:43Z</time>
      </trkpt>
      <trkpt lat="49.06236" lon="7.12419">
        <ele>231.79</ele>
        <time>2013-07-06T15:45:46Z</time>
      </trkpt>
      <trkpt lat="49.0625" lon="7.124">
        <ele>231.73</ele>
        <time>2013-07-06T15:45:49Z</time>
      </trkpt>
      <trkpt lat="49.06264" lon="7.12383">
        <ele>231.65</ele>
        <time>2013-07-06T15:45:52Z</time>
      </trkpt>
      <trkpt lat="49.06279" lon="7.12366">
        <ele>231.67</ele>
        <time>2013-07-06T15:45:55Z</time>
      </trkpt>
      <trkpt lat="49.06295" lon="7.12352">
        <ele>231.65</ele>
        <time>2013-07-06T15:45:58Z</time>
      </trkpt>
      <trkpt lat="49.06311" lon="7.12339">
        <ele>231.61</ele>
        <time>2013-07-06T15:46:01Z</time>
      </trkpt>
      <trkpt lat="49.06329" lon="7.12325">
        <ele>231.62</ele>
        <time>2013-07-06T15:46:04Z</time>
      </trkpt>
      <trkpt lat="49.06346" lon="7.12311">
        <ele>231.63</ele>
        <time>2013-07-06T15:46:07Z</time>
      </trkpt>
      <trkpt lat="49.06363" lon="7.12297">
        <ele>231.46</ele>
        <time>2013-07-06T15:46:10Z</time>
      </trkpt>
      <trkpt lat="49.0638" lon="7.12284">
        <ele>231.23</ele>
        <time>2013-07-06T15:46:13Z</time>
      </trkpt>
      <trkpt lat="49.06397" lon="7.12271">
        <ele>231.04</ele>
        <time>2013-07-06T15:46:16Z</time>
      </trkpt>
      <trkpt lat="49.06414" lon="7.12261">
        <ele>230.93</ele>
        <time>2013-07-06T15:46:19Z</time>
      </trkpt>
      <trkpt lat="49.06432" lon="7.12255">
        <ele>230.8</ele>
        <time>2013-07-06T15:46:22Z</time>
      </trkpt>
      <trkpt lat="49.06456" lon="7.12252">
        <ele>230.68</ele>
        <time>2013-07-06T15:46:26Z</time>
      </trkpt>
      <trkpt lat="49.06478" lon="7.12259">
        <ele>230.64</ele>
        <time>2013-07-06T15:46:30Z</time>
      </trkpt>
      <trkpt lat="49.06496" lon="7.12272">
        <ele>230.97</ele>
        <time>2013-07-06T15:46:34Z</time>
      </trkpt>
      <trkpt lat="49.06514" lon="7.12288">
        <ele>231.17</ele>
        <time>2013-07-06T15:46:38Z</time>
      </trkpt>
      <trkpt lat="49.0653" lon="7.12308">
        <ele>231.53</ele>
        <time>2013-07-06T15:46:42Z</time>
      </trkpt>
      <trkpt lat="49.06543" lon="7.12331">
        <ele>232.03</ele>
        <time>2013-07-06T15:46:46Z</time>
      </trkpt>
      <trkpt lat="49.06555" lon="7.12357">
        <ele>232.53</ele>
        <time>2013-07-06T15:46:50Z</time>
      </trkpt>
      <trkpt lat="49.06565" lon="7.12386">
        <ele>232.89</ele>
        <time>2013-07-06T15:46:54Z</time>
      </trkpt>
      <trkpt lat="49.06574" lon="7.12414">
        <ele>233.09</ele>
        <time>2013-07-06T15:46:58Z</time>
      </trkpt>
      <trkpt lat="49.06584" lon="7.12441">
        <ele>233.27</ele>
        <time>2013-07-06T15:47:02Z</time>
      </trkpt>
      <trkpt lat="49.06594" lon="7.12466">
        <ele>233.35</ele>
        <time>2013-07-06T15:47:06Z</time>
      </trkpt>
      <trkpt lat="49.06606" lon="7.12491">
        <ele>233.61</ele>
        <time>2013-07-06T15:47:10Z</time>
      </trkpt>
      <trkpt lat="49.06617" lon="7.12516">
        <ele>233.81</ele>
        <time>2013-07-06T15:47:14Z</time>
      </trkpt>
      <trkpt lat="49.06629" lon="7.12542">
        <ele>233.86</ele>
        <time>2013-07-06T15:47:18Z</time>
      </trkpt>
      <trkpt lat="49.06641" lon="7.12569">
        <ele>233.75</ele>
        <time>2013-07-06T15:47:22Z</time>
      </trkpt>
      <trkpt lat="49.06654" lon="7.12595">
        <ele>233.5</ele>
        <time>2013-07-06T15:47:26Z</time>
      </trkpt>
      <trkpt lat="49.0667" lon="7.12615">
        <ele>233.13</ele>
        <time>2013-07-06T15:47:30Z</time>
      </trkpt>
      <trkpt lat="49.06689" lon="7.12634">
        <ele>232.4</ele>
        <time>2013-07-06T15:47:34Z</time>
      </trkpt>
      <trkpt lat="49.06707" lon="7.12648">
        <ele>231.69</ele>
        <time>2013-07-06T15:47:37Z</time>
      </trkpt>
      <trkpt lat="49.06726" lon="7.12663">
        <ele>230.93</ele>
        <time>2013-07-06T15:47:40Z</time>
      </trkpt>
      <trkpt lat="49.06744" lon="7.12677">
        <ele>230.14</ele>
        <time>2013-07-06T15:47:43Z</time>
      </trkpt>
      <trkpt lat="49.06761" lon="7.12691">
        <ele>229.32</ele>
        <time>2013-07-06T15:47:46Z</time>
      </trkpt>
      <trkpt lat="49.06779" lon="7.12708">
        <ele>228.5</ele>
        <time>2013-07-06T15:47:49Z</time>
      </trkpt>
      <trkpt lat="49.06796" lon="7.12727">
        <ele>227.72</ele>
        <time>2013-07-06T15:47:52Z</time>
      </trkpt>
      <trkpt lat="49.06812" lon="7.12747">
        <ele>227.06</ele>
        <time>2013-07-06T15:47:55Z</time>
      </trkpt>
      <trkpt lat="49.06827" lon="7.1277">
        <ele>226.37</ele>
        <time>2013-07-06T15:47:58Z</time>
      </trkpt>
      <trkpt lat="49.06841" lon="7.12795">
        <ele>225.56</ele>
        <time>2013-07-06T15:48:01Z</time>
      </trkpt>
      <trkpt lat="49.06854" lon="7.12822">
        <ele>224.66</ele>
        <time>2013-07-06T15:48:04Z</time>
      </trkpt>
      <trkpt lat="49.06866" lon="7.12851">
        <ele>223.69</ele>
        <time>2013-07-06T15:48:07Z</time>
      </trkpt>
      <trkpt lat="49.06878" lon="7.12879">
        <ele>222.66</ele>
        <time>2013-07-06T15:48:10Z</time>
      </trkpt>
      <trkpt lat="49.06889" lon="7.12908">
        <ele>221.53</ele>
        <time>2013-07-06T15:48:13Z</time>
      </trkpt>
      <trkpt lat="49.06901" lon="7.12937">
        <ele>220.39</ele>
        <time>2013-07-06T15:48:16Z</time>
      </trkpt>
      <trkpt lat="49.06915" lon="7.12963">
        <ele>219.29</ele>
        <time>2013-07-06T15:48:19Z</time>
      </trkpt>
      <trkpt lat="49.0693" lon="7.12986">
        <ele>218.36</ele>
        <time>2013-07-06T15:48:22Z</time>
      </trkpt>
      <trkpt lat="49.06947" lon="7.13005">
        <ele>217.74</ele>
        <time>2013-07-06T15:48:25Z</time>
      </trkpt>
      <trkpt lat="49.06964" lon="7.13021">
        <ele>217.2</ele>
        <time>2013-07-06T15:48:28Z</time>
      </trkpt>
      <trkpt lat="49.06983" lon="7.13038">
        <ele>216.45</ele>
        <time>2013-07-06T15:48:31Z</time>
      </trkpt>
      <trkpt lat="49.07002" lon="7.13056">
        <ele>215.57</ele>
        <time>2013-07-06T15:48:34Z</time>
      </trkpt>
      <trkpt lat="49.07019" lon="7.13074">
        <ele>214.75</ele>
        <time>2013-07-06T15:48:37Z</time>
      </trkpt>
      <trkpt lat="49.07034" lon="7.13094">
        <ele>214.07</ele>
        <time>2013-07-06T15:48:40Z</time>
      </trkpt>
      <trkpt lat="49.07047" lon="7.13117">
        <ele>213.55</ele>
        <time>2013-07-06T15:48:43Z</time>
      </trkpt>
      <trkpt lat="49.07057" lon="7.13142">
        <ele>213.15</ele>
        <time>2013-07-06T15:48:46Z</time>
      </trkpt>
      <trkpt lat="49.07066" lon="7.13166">
        <ele>212.9</ele>
        <time>2013-07-06T15:48:49Z</time>
      </trkpt>
      <trkpt lat="49.07075" lon="7.1319">
        <ele>212.69</ele>
        <time>2013-07-06T15:48:52Z</time>
      </trkpt>
      <trkpt lat="49.07087" lon="7.1322">
        <ele>212.46</ele>
        <time>2013-07-06T15:48:56Z</time>
      </trkpt>
      <trkpt lat="49.07098" lon="7.13249">
        <ele>212.29</ele>
        <time>2013-07-06T15:49:00Z</time>
      </trkpt>
      <trkpt lat="49.07111" lon="7.13275">
        <ele>212.29</ele>
        <time>2013-07-06T15:49:04Z</time>
      </trkpt>
      <trkpt lat="49.07126" lon="7.13299">
        <ele>212.27</ele>
        <time>2013-07-06T15:49:08Z</time>
      </trkpt>
      <trkpt lat="49.07143" lon="7.13323">
        <ele>212.07</ele>
        <time>2013-07-06T15:49:12Z</time>
      </trkpt>
      <trkpt lat="49.07158" lon="7.13348">
        <ele>211.86</ele>
        <time>2013-07-06T15:49:16Z</time>
      </trkpt>
      <trkpt lat="49.07174" lon="7.13374">
        <ele>211.68</ele>
        <time>2013-07-06T15:49:20Z</time>
      </trkpt>
      <trkpt lat="49.07188" lon="7.13401">
        <ele>211.59</ele>
        <time>2013-07-06T15:49:24Z</time>
      </trkpt>
      <trkpt lat="49.07203" lon="7.13427">
        <ele>211.56</ele>
        <time>2013-07-06T15:49:28Z</time>
      </trkpt>
      <trkpt lat="49.07221" lon="7.1345">
        <ele>211.69</ele>
        <time>2013-07-06T15:49:32Z</time>
      </trkpt>
      <trkpt lat="49.07236" lon="7.13465">
        <ele>211.81</ele>
        <time>2013-07-06T15:49:35Z</time>
      </trkpt>
      <trkpt lat="49.07252" lon="7.13479">
        <ele>211.91</ele>
        <time>2013-07-06T15:49:38Z</time>
      </trkpt>
      <trkpt lat="49.07268" lon="7.13493">
        <ele>212.14</ele>
        <time>2013-07-06T15:49:41Z</time>
      </trkpt>
      <trkpt lat="49.07285" lon="7.13517">
        <ele>212.59</ele>
        <time>2013-07-06T15:49:45Z</time>
      </trkpt>
      <trkpt lat="49.07298" lon="7.13544">
        <ele>213.17</ele>
        <time>2013-07-06T15:49:49Z</time>
      </trkpt>
      <trkpt lat="49.07306" lon="7.13575">
        <ele>213.63</ele>
        <time>2013-07-06T15:49:53Z</time>
      </trkpt>
      <trkpt lat="49.0731" lon="7.13602">
        <ele>214.91</ele>
        <time>2013-07-06T15:49:56Z</time>
      </trkpt>
      <trkpt lat="49.07315" lon="7.13629">
        <ele>215.42</ele>
        <time>2013-07-06T15:49:59Z</time>
      </trkpt>
      <trkpt lat="49.07319" lon="7.13655">
        <ele>215.54</ele>
        <time>2013-07-06T15:50:02Z</time>
      </trkpt>
      <trkpt lat="49.07327" lon="7.13688">
        <ele>215.51</ele>
        <time>2013-07-06T15:50:06Z</time>
      </trkpt>
      <trkpt lat="49.07338" lon="7.13721">
        <ele>215.74</ele>
        <time>2013-07-06T15:50:10Z</time>
      </trkpt>
      <trkpt lat="49.07347" lon="7.13746">
        <ele>215.35</ele>
        <time>2013-07-06T15:50:13Z</time>
      </trkpt>
      <trkpt lat="49.07357" lon="7.13773">
        <ele>214.79</ele>
        <time>2013-07-06T15:50:16Z</time>
      </trkpt>
      <trkpt lat="49.07368" lon="7.13798">
        <ele>214.08</ele>
        <time>2013-07-06T15:50:19Z</time>
      </trkpt>
      <trkpt lat="49.07379" lon="7.13822">
        <ele>213.34</ele>
        <time>2013-07-06T15:50:22Z</time>
      </trkpt>
      <trkpt lat="49.07391" lon="7.13845">
        <ele>212.67</ele>
        <time>2013-07-06T15:50:25Z</time>
      </trkpt>
      <trkpt lat="49.07405" lon="7.13865">
        <ele>212.11</ele>
        <time>2013-07-06T15:50:28Z</time>
      </trkpt>
      <trkpt lat="49.0742" lon="7.13884">
        <ele>211.64</ele>
        <time>2013-07-06T15:50:31Z</time>
      </trkpt>
      <trkpt lat="49.07435" lon="7.13902">
        <ele>211.43</ele>
        <time>2013-07-06T15:50:34Z</time>
      </trkpt>
      <trkpt lat="49.07451" lon="7.13917">
        <ele>211.54</ele>
        <time>2013-07-06T15:50:37Z</time>
      </trkpt>
      <trkpt lat="49.07468" lon="7.1393">
        <ele>211.95</ele>
        <time>2013-07-06T15:50:40Z</time>
      </trkpt>
      <trkpt lat="49.07487" lon="7.13941">
        <ele>212.23</ele>
        <time>2013-07-06T15:50:43Z</time>
      </trkpt>
      <trkpt lat="49.07505" lon="7.13949">
        <ele>212.74</ele>
        <time>2013-07-06T15:50:46Z</time>
      </trkpt>
      <trkpt lat="49.07524" lon="7.13955">
        <ele>213.28</ele>
        <time>2013-07-06T15:50:49Z</time>
      </trkpt>
      <trkpt lat="49.07547" lon="7.13962">
        <ele>213.93</ele>
        <time>2013-07-06T15:50:53Z</time>
      </trkpt>
      <trkpt lat="49.07569" lon="7.13967">
        <ele>214.98</ele>
        <time>2013-07-06T15:50:57Z</time>
      </trkpt>
      <trkpt lat="49.07589" lon="7.13967">
        <ele>215.31</ele>
        <time>2013-07-06T15:51:01Z</time>
      </trkpt>
      <trkpt lat="49.07611" lon="7.13958">
        <ele>215.22</ele>
        <time>2013-07-06T15:51:06Z</time>
      </trkpt>
      <trkpt lat="49.0763" lon="7.13953">
        <ele>215.63</ele>
        <time>2013-07-06T15:51:09Z</time>
      </trkpt>
      <trkpt lat="49.07651" lon="7.13948">
        <ele>216.23</ele>
        <time>2013-07-06T15:51:12Z</time>
      </trkpt>
      <trkpt lat="49.07669" lon="7.13944">
        <ele>216.54</ele>
        <time>2013-07-06T15:51:15Z</time>
      </trkpt>
      <trkpt lat="49.07692" lon="7.13941">
        <ele>216.47</ele>
        <time>2013-07-06T15:51:19Z</time>
      </trkpt>
      <trkpt lat="49.07711" lon="7.13936">
        <ele>216.64</ele>
        <time>2013-07-06T15:51:23Z</time>
      </trkpt>
      <trkpt lat="49.07729" lon="7.13926">
        <ele>216.28</ele>
        <time>2013-07-06T15:51:27Z</time>
      </trkpt>
      <trkpt lat="49.07747" lon="7.13918">
        <ele>216.14</ele>
        <time>2013-07-06T15:51:31Z</time>
      </trkpt>
      <trkpt lat="49.07768" lon="7.13915">
        <ele>215.84</ele>
        <time>2013-07-06T15:51:35Z</time>
      </trkpt>
      <trkpt lat="49.07787" lon="7.13908">
        <ele>215.48</ele>
        <time>2013-07-06T15:51:38Z</time>
      </trkpt>
      <trkpt lat="49.07805" lon="7.13901">
        <ele>215.25</ele>
        <time>2013-07-06T15:51:41Z</time>
      </trkpt>
      <trkpt lat="49.07824" lon="7.13894">
        <ele>215.32</ele>
        <time>2013-07-06T15:51:44Z</time>
      </trkpt>
      <trkpt lat="49.07842" lon="7.13887">
        <ele>215.41</ele>
        <time>2013-07-06T15:51:47Z</time>
      </trkpt>
      <trkpt lat="49.0786" lon="7.13876">
        <ele>215.73</ele>
        <time>2013-07-06T15:51:50Z</time>
      </trkpt>
      <trkpt lat="49.07878" lon="7.13864">
        <ele>216.14</ele>
        <time>2013-07-06T15:51:53Z</time>
      </trkpt>
      <trkpt lat="49.07896" lon="7.13855">
        <ele>216.66</ele>
        <time>2013-07-06T15:51:56Z</time>
      </trkpt>
      <trkpt lat="49.07918" lon="7.13847">
        <ele>216.75</ele>
        <time>2013-07-06T15:52:00Z</time>
      </trkpt>
      <trkpt lat="49.07939" lon="7.13837">
        <ele>216.24</ele>
        <time>2013-07-06T15:52:04Z</time>
      </trkpt>
      <trkpt lat="49.07956" lon="7.13824">
        <ele>215.52</ele>
        <time>2013-07-06T15:52:07Z</time>
      </trkpt>
      <trkpt lat="49.07974" lon="7.13807">
        <ele>214.48</ele>
        <time>2013-07-06T15:52:10Z</time>
      </trkpt>
      <trkpt lat="49.07994" lon="7.13789">
        <ele>213.54</ele>
        <time>2013-07-06T15:52:13Z</time>
      </trkpt>
      <trkpt lat="49.08014" lon="7.13774">
        <ele>212.9</ele>
        <time>2013-07-06T15:52:16Z</time>
      </trkpt>
      <trkpt lat="49.08033" lon="7.13761">
        <ele>212.78</ele>
        <time>2013-07-06T15:52:19Z</time>
      </trkpt>
      <trkpt lat="49.08052" lon="7.13754">
        <ele>212.89</ele>
        <time>2013-07-06T15:52:22Z</time>
      </trkpt>
      <trkpt lat="49.08073" lon="7.13747">
        <ele>212.98</ele>
        <time>2013-07-06T15:52:26Z</time>
      </trkpt>
      <trkpt lat="49.08091" lon="7.13738">
        <ele>212.86</ele>
        <time>2013-07-06T15:52:30Z</time>
      </trkpt>
      <trkpt lat="49.08112" lon="7.13723">
        <ele>213.65</ele>
        <time>2013-07-06T15:52:34Z</time>
      </trkpt>
      <trkpt lat="49.08131" lon="7.13717">
        <ele>213.54</ele>
        <time>2013-07-06T15:52:37Z</time>
      </trkpt>
      <trkpt lat="49.08155" lon="7.13707">
        <ele>212.94</ele>
        <time>2013-07-06T15:52:41Z</time>
      </trkpt>
      <trkpt lat="49.08172" lon="7.13696">
        <ele>212.35</ele>
        <time>2013-07-06T15:52:44Z</time>
      </trkpt>
      <trkpt lat="49.08191" lon="7.13683">
        <ele>212.28</ele>
        <time>2013-07-06T15:52:47Z</time>
      </trkpt>
      <trkpt lat="49.0821" lon="7.13668">
        <ele>213.48</ele>
        <time>2013-07-06T15:52:50Z</time>
      </trkpt>
      <trkpt lat="49.08227" lon="7.13653">
        <ele>213.75</ele>
        <time>2013-07-06T15:52:53Z</time>
      </trkpt>
      <trkpt lat="49.08243" lon="7.13638">
        <ele>213.37</ele>
        <time>2013-07-06T15:52:56Z</time>
      </trkpt>
      <trkpt lat="49.0826" lon="7.13622">
        <ele>212.7</ele>
        <time>2013-07-06T15:52:59Z</time>
      </trkpt>
      <trkpt lat="49.08276" lon="7.13606">
        <ele>212.26</ele>
        <time>2013-07-06T15:53:02Z</time>
      </trkpt>
      <trkpt lat="49.08292" lon="7.13589">
        <ele>211.71</ele>
        <time>2013-07-06T15:53:05Z</time>
      </trkpt>
      <trkpt lat="49.08308" lon="7.13573">
        <ele>211.26</ele>
        <time>2013-07-06T15:53:08Z</time>
      </trkpt>
      <trkpt lat="49.08323" lon="7.13559">
        <ele>210.99</ele>
        <time>2013-07-06T15:53:11Z</time>
      </trkpt>
      <trkpt lat="49.08344" lon="7.1354">
        <ele>211.02</ele>
        <time>2013-07-06T15:53:15Z</time>
      </trkpt>
      <trkpt lat="49.0836" lon="7.13527">
        <ele>211.16</ele>
        <time>2013-07-06T15:53:18Z</time>
      </trkpt>
      <trkpt lat="49.08376" lon="7.13514">
        <ele>211.44</ele>
        <time>2013-07-06T15:53:21Z</time>
      </trkpt>
      <trkpt lat="49.08396" lon="7.13497">
        <ele>212.06</ele>
        <time>2013-07-06T15:53:25Z</time>
      </trkpt>
      <trkpt lat="49.08415" lon="7.13482">
        <ele>212.85</ele>
        <time>2013-07-06T15:53:29Z</time>
      </trkpt>
      <trkpt lat="49.08433" lon="7.13466">
        <ele>213.54</ele>
        <time>2013-07-06T15:53:33Z</time>
      </trkpt>
      <trkpt lat="49.08451" lon="7.1345">
        <ele>214.29</ele>
        <time>2013-07-06T15:53:37Z</time>
      </trkpt>
      <trkpt lat="49.0847" lon="7.13435">
        <ele>215.24</ele>
        <time>2013-07-06T15:53:41Z</time>
      </trkpt>
      <trkpt lat="49.08489" lon="7.1342">
        <ele>216.13</ele>
        <time>2013-07-06T15:53:45Z</time>
      </trkpt>
      <trkpt lat="49.08507" lon="7.13404">
        <ele>216.88</ele>
        <time>2013-07-06T15:53:49Z</time>
      </trkpt>
      <trkpt lat="49.08525" lon="7.1339">
        <ele>217.31</ele>
        <time>2013-07-06T15:53:53Z</time>
      </trkpt>
      <trkpt lat="49.08544" lon="7.13373">
        <ele>217.32</ele>
        <time>2013-07-06T15:53:58Z</time>
      </trkpt>
      <trkpt lat="49.08559" lon="7.13352">
        <ele>216.96</ele>
        <time>2013-07-06T15:54:02Z</time>
      </trkpt>
      <trkpt lat="49.08578" lon="7.13331">
        <ele>216.39</ele>
        <time>2013-07-06T15:54:06Z</time>
      </trkpt>
      <trkpt lat="49.08593" lon="7.13315">
        <ele>215.93</ele>
        <time>2013-07-06T15:54:09Z</time>
      </trkpt>
      <trkpt lat="49.08609" lon="7.13297">
        <ele>215.46</ele>
        <time>2013-07-06T15:54:12Z</time>
      </trkpt>
      <trkpt lat="49.08625" lon="7.13279">
        <ele>215</ele>
        <time>2013-07-06T15:54:15Z</time>
      </trkpt>
      <trkpt lat="49.08641" lon="7.13262">
        <ele>214.59</ele>
        <time>2013-07-06T15:54:18Z</time>
      </trkpt>
      <trkpt lat="49.08658" lon="7.13244">
        <ele>214.13</ele>
        <time>2013-07-06T15:54:21Z</time>
      </trkpt>
      <trkpt lat="49.08674" lon="7.13226">
        <ele>213.7</ele>
        <time>2013-07-06T15:54:24Z</time>
      </trkpt>
      <trkpt lat="49.0869" lon="7.13208">
        <ele>213.26</ele>
        <time>2013-07-06T15:54:27Z</time>
      </trkpt>
      <trkpt lat="49.08706" lon="7.13189">
        <ele>212.69</ele>
        <time>2013-07-06T15:54:30Z</time>
      </trkpt>
      <trkpt lat="49.0872" lon="7.13168">
        <ele>212.09</ele>
        <time>2013-07-06T15:54:33Z</time>
      </trkpt>
      <trkpt lat="49.08734" lon="7.13144">
        <ele>211.55</ele>
        <time>2013-07-06T15:54:36Z</time>
      </trkpt>
      <trkpt lat="49.08748" lon="7.13121">
        <ele>211.16</ele>
        <time>2013-07-06T15:54:39Z</time>
      </trkpt>
      <trkpt lat="49.08761" lon="7.13098">
        <ele>210.88</ele>
        <time>2013-07-06T15:54:42Z</time>
      </trkpt>
      <trkpt lat="49.08774" lon="7.13075">
        <ele>210.72</ele>
        <time>2013-07-06T15:54:45Z</time>
      </trkpt>
      <trkpt lat="49.08787" lon="7.13054">
        <ele>210.62</ele>
        <time>2013-07-06T15:54:48Z</time>
      </trkpt>
      <trkpt lat="49.08798" lon="7.13031">
        <ele>210.54</ele>
        <time>2013-07-06T15:54:51Z</time>
      </trkpt>
      <trkpt lat="49.08809" lon="7.13008">
        <ele>210.59</ele>
        <time>2013-07-06T15:54:54Z</time>
      </trkpt>
      <trkpt lat="49.08819" lon="7.12984">
        <ele>210.7</ele>
        <time>2013-07-06T15:54:57Z</time>
      </trkpt>
      <trkpt lat="49.08829" lon="7.12961">
        <ele>210.84</ele>
        <time>2013-07-06T15:55:00Z</time>
      </trkpt>
      <trkpt lat="49.08841" lon="7.12935">
        <ele>211.33</ele>
        <time>2013-07-06T15:55:04Z</time>
      </trkpt>
      <trkpt lat="49.08851" lon="7.12908">
        <ele>211.52</ele>
        <time>2013-07-06T15:55:08Z</time>
      </trkpt>
      <trkpt lat="49.08862" lon="7.12876">
        <ele>211.44</ele>
        <time>2013-07-06T15:55:12Z</time>
      </trkpt>
      <trkpt lat="49.08867" lon="7.12841">
        <ele>211.79</ele>
        <time>2013-07-06T15:55:16Z</time>
      </trkpt>
      <trkpt lat="49.08871" lon="7.12809">
        <ele>212.33</ele>
        <time>2013-07-06T15:55:20Z</time>
      </trkpt>
      <trkpt lat="49.08874" lon="7.12781">
        <ele>213.26</ele>
        <time>2013-07-06T15:55:25Z</time>
      </trkpt>
      <trkpt lat="49.08877" lon="7.12753">
        <ele>213.53</ele>
        <time>2013-07-06T15:55:28Z</time>
      </trkpt>
      <trkpt lat="49.08881" lon="7.12725">
        <ele>213.67</ele>
        <time>2013-07-06T15:55:31Z</time>
      </trkpt>
      <trkpt lat="49.08884" lon="7.1269">
        <ele>213.38</ele>
        <time>2013-07-06T15:55:34Z</time>
      </trkpt>
      <trkpt lat="49.08889" lon="7.12657">
        <ele>212.76</ele>
        <time>2013-07-06T15:55:37Z</time>
      </trkpt>
      <trkpt lat="49.08893" lon="7.12626">
        <ele>212.17</ele>
        <time>2013-07-06T15:55:40Z</time>
      </trkpt>
      <trkpt lat="49.08896" lon="7.12596">
        <ele>211.9</ele>
        <time>2013-07-06T15:55:43Z</time>
      </trkpt>
      <trkpt lat="49.08899" lon="7.12568">
        <ele>211.8</ele>
        <time>2013-07-06T15:55:46Z</time>
      </trkpt>
      <trkpt lat="49.08902" lon="7.1254">
        <ele>211.31</ele>
        <time>2013-07-06T15:55:49Z</time>
      </trkpt>
      <trkpt lat="49.08905" lon="7.12511">
        <ele>211.07</ele>
        <time>2013-07-06T15:55:52Z</time>
      </trkpt>
      <trkpt lat="49.08906" lon="7.12481">
        <ele>211.07</ele>
        <time>2013-07-06T15:55:55Z</time>
      </trkpt>
      <trkpt lat="49.08907" lon="7.1245">
        <ele>211.19</ele>
        <time>2013-07-06T15:55:58Z</time>
      </trkpt>
      <trkpt lat="49.08908" lon="7.1242">
        <ele>211.39</ele>
        <time>2013-07-06T15:56:01Z</time>
      </trkpt>
      <trkpt lat="49.08907" lon="7.1239">
        <ele>211.91</ele>
        <time>2013-07-06T15:56:04Z</time>
      </trkpt>
      <trkpt lat="49.08907" lon="7.1236">
        <ele>212.14</ele>
        <time>2013-07-06T15:56:07Z</time>
      </trkpt>
      <trkpt lat="49.08907" lon="7.1233">
        <ele>212.06</ele>
        <time>2013-07-06T15:56:10Z</time>
      </trkpt>
      <trkpt lat="49.08905" lon="7.12301">
        <ele>212.37</ele>
        <time>2013-07-06T15:56:13Z</time>
      </trkpt>
      <trkpt lat="49.08903" lon="7.12267">
        <ele>213.59</ele>
        <time>2013-07-06T15:56:17Z</time>
      </trkpt>
      <trkpt lat="49.08902" lon="7.12235">
        <ele>214.62</ele>
        <time>2013-07-06T15:56:21Z</time>
      </trkpt>
      <trkpt lat="49.08903" lon="7.12199">
        <ele>215.5</ele>
        <time>2013-07-06T15:56:25Z</time>
      </trkpt>
      <trkpt lat="49.08904" lon="7.12165">
        <ele>215</ele>
        <time>2013-07-06T15:56:28Z</time>
      </trkpt>
      <trkpt lat="49.08903" lon="7.12135">
        <ele>214.15</ele>
        <time>2013-07-06T15:56:31Z</time>
      </trkpt>
      <trkpt lat="49.089" lon="7.12106">
        <ele>213.41</ele>
        <time>2013-07-06T15:56:34Z</time>
      </trkpt>
      <trkpt lat="49.08898" lon="7.12069">
        <ele>212.46</ele>
        <time>2013-07-06T15:56:38Z</time>
      </trkpt>
      <trkpt lat="49.08901" lon="7.12038">
        <ele>211.47</ele>
        <time>2013-07-06T15:56:41Z</time>
      </trkpt>
      <trkpt lat="49.08904" lon="7.12005">
        <ele>210.96</ele>
        <time>2013-07-06T15:56:45Z</time>
      </trkpt>
      <trkpt lat="49.08905" lon="7.11973">
        <ele>211.33</ele>
        <time>2013-07-06T15:56:49Z</time>
      </trkpt>
      <trkpt lat="49.08906" lon="7.11942">
        <ele>211.3</ele>
        <time>2013-07-06T15:56:53Z</time>
      </trkpt>
      <trkpt lat="49.08902" lon="7.11911">
        <ele>210.6</ele>
        <time>2013-07-06T15:56:57Z</time>
      </trkpt>
      <trkpt lat="49.089" lon="7.11876">
        <ele>209.75</ele>
        <time>2013-07-06T15:57:01Z</time>
      </trkpt>
      <trkpt lat="49.08898" lon="7.11848">
        <ele>209.32</ele>
        <time>2013-07-06T15:57:04Z</time>
      </trkpt>
      <trkpt lat="49.08896" lon="7.1182">
        <ele>208.98</ele>
        <time>2013-07-06T15:57:07Z</time>
      </trkpt>
      <trkpt lat="49.08893" lon="7.11791">
        <ele>208.85</ele>
        <time>2013-07-06T15:57:10Z</time>
      </trkpt>
      <trkpt lat="49.08892" lon="7.11761">
        <ele>209.01</ele>
        <time>2013-07-06T15:57:13Z</time>
      </trkpt>
      <trkpt lat="49.08893" lon="7.11731">
        <ele>209.39</ele>
        <time>2013-07-06T15:57:16Z</time>
      </trkpt>
      <trkpt lat="49.08893" lon="7.11703">
        <ele>209.8</ele>
        <time>2013-07-06T15:57:19Z</time>
      </trkpt>
      <trkpt lat="49.08893" lon="7.11668">
        <ele>210.06</ele>
        <time>2013-07-06T15:57:23Z</time>
      </trkpt>
      <trkpt lat="49.08894" lon="7.11638">
        <ele>210.78</ele>
        <time>2013-07-06T15:57:27Z</time>
      </trkpt>
      <trkpt lat="49.08892" lon="7.11605">
        <ele>211.74</ele>
        <time>2013-07-06T15:57:31Z</time>
      </trkpt>
      <trkpt lat="49.08891" lon="7.11571">
        <ele>212.33</ele>
        <time>2013-07-06T15:57:35Z</time>
      </trkpt>
      <trkpt lat="49.08891" lon="7.1154">
        <ele>212.61</ele>
        <time>2013-07-06T15:57:39Z</time>
      </trkpt>
      <trkpt lat="49.08889" lon="7.11509">
        <ele>213.08</ele>
        <time>2013-07-06T15:57:43Z</time>
      </trkpt>
      <trkpt lat="49.08887" lon="7.11475">
        <ele>214.03</ele>
        <time>2013-07-06T15:57:47Z</time>
      </trkpt>
      <trkpt lat="49.08886" lon="7.11442">
        <ele>214.67</ele>
        <time>2013-07-06T15:57:51Z</time>
      </trkpt>
      <trkpt lat="49.08884" lon="7.11411">
        <ele>215.22</ele>
        <time>2013-07-06T15:57:55Z</time>
      </trkpt>
      <trkpt lat="49.08884" lon="7.11377">
        <ele>215.66</ele>
        <time>2013-07-06T15:57:59Z</time>
      </trkpt>
      <trkpt lat="49.08883" lon="7.11343">
        <ele>215.97</ele>
        <time>2013-07-06T15:58:03Z</time>
      </trkpt>
      <trkpt lat="49.08881" lon="7.11309">
        <ele>216.46</ele>
        <time>2013-07-06T15:58:07Z</time>
      </trkpt>
      <trkpt lat="49.08878" lon="7.11274">
        <ele>217.02</ele>
        <time>2013-07-06T15:58:11Z</time>
      </trkpt>
      <trkpt lat="49.08874" lon="7.1124">
        <ele>217.46</ele>
        <time>2013-07-06T15:58:15Z</time>
      </trkpt>
      <trkpt lat="49.08872" lon="7.11208">
        <ele>217.88</ele>
        <time>2013-07-06T15:58:19Z</time>
      </trkpt>
      <trkpt lat="49.08872" lon="7.11175">
        <ele>218.04</ele>
        <time>2013-07-06T15:58:23Z</time>
      </trkpt>
      <trkpt lat="49.08874" lon="7.11141">
        <ele>218.28</ele>
        <time>2013-07-06T15:58:27Z</time>
      </trkpt>
      <trkpt lat="49.08876" lon="7.11109">
        <ele>218.7</ele>
        <time>2013-07-06T15:58:31Z</time>
      </trkpt>
      <trkpt lat="49.08878" lon="7.11076">
        <ele>219.29</ele>
        <time>2013-07-06T15:58:35Z</time>
      </trkpt>
      <trkpt lat="49.0888" lon="7.11048">
        <ele>219.66</ele>
        <time>2013-07-06T15:58:39Z</time>
      </trkpt>
      <trkpt lat="49.08881" lon="7.11018">
        <ele>219.71</ele>
        <time>2013-07-06T15:58:45Z</time>
      </trkpt>
      <trkpt lat="49.08878" lon="7.1099">
        <ele>225.7</ele>
        <time>2013-07-06T15:59:22Z</time>
      </trkpt>
      <trkpt lat="49.08878" lon="7.10962">
        <ele>226.22</ele>
        <time>2013-07-06T15:59:25Z</time>
      </trkpt>
      <trkpt lat="49.08878" lon="7.10932">
        <ele>226.25</ele>
        <time>2013-07-06T15:59:28Z</time>
      </trkpt>
      <trkpt lat="49.08879" lon="7.109">
        <ele>226.04</ele>
        <time>2013-07-06T15:59:31Z</time>
      </trkpt>
      <trkpt lat="49.08882" lon="7.10864">
        <ele>225.33</ele>
        <time>2013-07-06T15:59:34Z</time>
      </trkpt>
      <trkpt lat="49.08885" lon="7.10829">
        <ele>223.16</ele>
        <time>2013-07-06T15:59:37Z</time>
      </trkpt>
      <trkpt lat="49.08889" lon="7.10792">
        <ele>220.1</ele>
        <time>2013-07-06T15:59:40Z</time>
      </trkpt>
      <trkpt lat="49.0889" lon="7.10755">
        <ele>218.11</ele>
        <time>2013-07-06T15:59:43Z</time>
      </trkpt>
      <trkpt lat="49.0889" lon="7.10718">
        <ele>216.74</ele>
        <time>2013-07-06T15:59:46Z</time>
      </trkpt>
      <trkpt lat="49.08894" lon="7.10683">
        <ele>215.49</ele>
        <time>2013-07-06T15:59:49Z</time>
      </trkpt>
      <trkpt lat="49.08899" lon="7.1065">
        <ele>214.61</ele>
        <time>2013-07-06T15:59:52Z</time>
      </trkpt>
      <trkpt lat="49.08907" lon="7.10621">
        <ele>214.2</ele>
        <time>2013-07-06T15:59:55Z</time>
      </trkpt>
      <trkpt lat="49.08916" lon="7.10593">
        <ele>213.7</ele>
        <time>2013-07-06T15:59:58Z</time>
      </trkpt>
      <trkpt lat="49.08928" lon="7.10569">
        <ele>213.81</ele>
        <time>2013-07-06T16:00:01Z</time>
      </trkpt>
      <trkpt lat="49.08942" lon="7.10551">
        <ele>213.87</ele>
        <time>2013-07-06T16:00:04Z</time>
      </trkpt>
      <trkpt lat="49.08956" lon="7.10525">
        <ele>214.27</ele>
        <time>2013-07-06T16:00:08Z</time>
      </trkpt>
      <trkpt lat="49.08966" lon="7.105">
        <ele>215.27</ele>
        <time>2013-07-06T16:00:12Z</time>
      </trkpt>
      <trkpt lat="49.08977" lon="7.10471">
        <ele>216.86</ele>
        <time>2013-07-06T16:00:17Z</time>
      </trkpt>
      <trkpt lat="49.08993" lon="7.10452">
        <ele>218.06</ele>
        <time>2013-07-06T16:00:22Z</time>
      </trkpt>
      <trkpt lat="49.09013" lon="7.10458">
        <ele>219.86</ele>
        <time>2013-07-06T16:00:28Z</time>
      </trkpt>
      <trkpt lat="49.09028" lon="7.10474">
        <ele>221.67</ele>
        <time>2013-07-06T16:00:34Z</time>
      </trkpt>
      <trkpt lat="49.09042" lon="7.10493">
        <ele>222.96</ele>
        <time>2013-07-06T16:00:40Z</time>
      </trkpt>
      <trkpt lat="49.09057" lon="7.10517">
        <ele>224.09</ele>
        <time>2013-07-06T16:00:46Z</time>
      </trkpt>
      <trkpt lat="49.09071" lon="7.10536">
        <ele>225.1</ele>
        <time>2013-07-06T16:00:51Z</time>
      </trkpt>
      <trkpt lat="49.09087" lon="7.10554">
        <ele>225.91</ele>
        <time>2013-07-06T16:00:56Z</time>
      </trkpt>
      <trkpt lat="49.09103" lon="7.10571">
        <ele>226.85</ele>
        <time>2013-07-06T16:01:01Z</time>
      </trkpt>
      <trkpt lat="49.09118" lon="7.10588">
        <ele>227.66</ele>
        <time>2013-07-06T16:01:06Z</time>
      </trkpt>
      <trkpt lat="49.09136" lon="7.10604">
        <ele>230.17</ele>
        <time>2013-07-06T16:01:11Z</time>
      </trkpt>
      <trkpt lat="49.09153" lon="7.1062">
        <ele>231.36</ele>
        <time>2013-07-06T16:01:16Z</time>
      </trkpt>
      <trkpt lat="49.0917" lon="7.10634">
        <ele>232.61</ele>
        <time>2013-07-06T16:01:21Z</time>
      </trkpt>
      <trkpt lat="49.09187" lon="7.10649">
        <ele>233.6</ele>
        <time>2013-07-06T16:01:26Z</time>
      </trkpt>
      <trkpt lat="49.09208" lon="7.10662">
        <ele>234.98</ele>
        <time>2013-07-06T16:01:31Z</time>
      </trkpt>
      <trkpt lat="49.09225" lon="7.10673">
        <ele>235.82</ele>
        <time>2013-07-06T16:01:35Z</time>
      </trkpt>
      <trkpt lat="49.09243" lon="7.10684">
        <ele>236.19</ele>
        <time>2013-07-06T16:01:39Z</time>
      </trkpt>
      <trkpt lat="49.09262" lon="7.10694">
        <ele>236.26</ele>
        <time>2013-07-06T16:01:43Z</time>
      </trkpt>
      <trkpt lat="49.0928" lon="7.10706">
        <ele>236.88</ele>
        <time>2013-07-06T16:01:47Z</time>
      </trkpt>
      <trkpt lat="49.09299" lon="7.10719">
        <ele>237.1</ele>
        <time>2013-07-06T16:01:51Z</time>
      </trkpt>
      <trkpt lat="49.09319" lon="7.10731">
        <ele>237.53</ele>
        <time>2013-07-06T16:01:55Z</time>
      </trkpt>
      <trkpt lat="49.09338" lon="7.10743">
        <ele>238.3</ele>
        <time>2013-07-06T16:01:59Z</time>
      </trkpt>
      <trkpt lat="49.09356" lon="7.10755">
        <ele>238.9</ele>
        <time>2013-07-06T16:02:03Z</time>
      </trkpt>
      <trkpt lat="49.09374" lon="7.10767">
        <ele>239.11</ele>
        <time>2013-07-06T16:02:07Z</time>
      </trkpt>
      <trkpt lat="49.09393" lon="7.1078">
        <ele>239.3</ele>
        <time>2013-07-06T16:02:11Z</time>
      </trkpt>
      <trkpt lat="49.09411" lon="7.10792">
        <ele>239.66</ele>
        <time>2013-07-06T16:02:15Z</time>
      </trkpt>
      <trkpt lat="49.0943" lon="7.10804">
        <ele>239.96</ele>
        <time>2013-07-06T16:02:19Z</time>
      </trkpt>
      <trkpt lat="49.09448" lon="7.10816">
        <ele>240.39</ele>
        <time>2013-07-06T16:02:23Z</time>
      </trkpt>
      <trkpt lat="49.09466" lon="7.10828">
        <ele>240.96</ele>
        <time>2013-07-06T16:02:27Z</time>
      </trkpt>
      <trkpt lat="49.09484" lon="7.1084">
        <ele>241.18</ele>
        <time>2013-07-06T16:02:31Z</time>
      </trkpt>
      <trkpt lat="49.09502" lon="7.10853">
        <ele>241.35</ele>
        <time>2013-07-06T16:02:35Z</time>
      </trkpt>
      <trkpt lat="49.09518" lon="7.10867">
        <ele>241.68</ele>
        <time>2013-07-06T16:02:39Z</time>
      </trkpt>
      <trkpt lat="49.09533" lon="7.10884">
        <ele>242.29</ele>
        <time>2013-07-06T16:02:43Z</time>
      </trkpt>
      <trkpt lat="49.09547" lon="7.10903">
        <ele>242.45</ele>
        <time>2013-07-06T16:02:47Z</time>
      </trkpt>
      <trkpt lat="49.09561" lon="7.10923">
        <ele>242.72</ele>
        <time>2013-07-06T16:02:51Z</time>
      </trkpt>
      <trkpt lat="49.09576" lon="7.10943">
        <ele>243.33</ele>
        <time>2013-07-06T16:02:55Z</time>
      </trkpt>
      <trkpt lat="49.09592" lon="7.10959">
        <ele>243.88</ele>
        <time>2013-07-06T16:02:59Z</time>
      </trkpt>
      <trkpt lat="49.09612" lon="7.10965">
        <ele>244.97</ele>
        <time>2013-07-06T16:03:03Z</time>
      </trkpt>
      <trkpt lat="49.09632" lon="7.10961">
        <ele>246.39</ele>
        <time>2013-07-06T16:03:07Z</time>
      </trkpt>
      <trkpt lat="49.09651" lon="7.10949">
        <ele>247.42</ele>
        <time>2013-07-06T16:03:11Z</time>
      </trkpt>
      <trkpt lat="49.09669" lon="7.10934">
        <ele>248.06</ele>
        <time>2013-07-06T16:03:15Z</time>
      </trkpt>
      <trkpt lat="49.09689" lon="7.10918">
        <ele>247.91</ele>
        <time>2013-07-06T16:03:19Z</time>
      </trkpt>
      <trkpt lat="49.09711" lon="7.10902">
        <ele>247.52</ele>
        <time>2013-07-06T16:03:23Z</time>
      </trkpt>
      <trkpt lat="49.09727" lon="7.1089">
        <ele>247.41</ele>
        <time>2013-07-06T16:03:26Z</time>
      </trkpt>
      <trkpt lat="49.09744" lon="7.10877">
        <ele>247.44</ele>
        <time>2013-07-06T16:03:29Z</time>
      </trkpt>
      <trkpt lat="49.0976" lon="7.10863">
        <ele>247.38</ele>
        <time>2013-07-06T16:03:32Z</time>
      </trkpt>
      <trkpt lat="49.09777" lon="7.10849">
        <ele>247.2</ele>
        <time>2013-07-06T16:03:35Z</time>
      </trkpt>
      <trkpt lat="49.09793" lon="7.10834">
        <ele>246.97</ele>
        <time>2013-07-06T16:03:38Z</time>
      </trkpt>
      <trkpt lat="49.09809" lon="7.1082">
        <ele>246.79</ele>
        <time>2013-07-06T16:03:41Z</time>
      </trkpt>
      <trkpt lat="49.09825" lon="7.10805">
        <ele>246.55</ele>
        <time>2013-07-06T16:03:44Z</time>
      </trkpt>
      <trkpt lat="49.09841" lon="7.10791">
        <ele>246.39</ele>
        <time>2013-07-06T16:03:47Z</time>
      </trkpt>
      <trkpt lat="49.09858" lon="7.10778">
        <ele>246.31</ele>
        <time>2013-07-06T16:03:50Z</time>
      </trkpt>
      <trkpt lat="49.09874" lon="7.10767">
        <ele>246.3</ele>
        <time>2013-07-06T16:03:53Z</time>
      </trkpt>
      <trkpt lat="49.09896" lon="7.10753">
        <ele>246.26</ele>
        <time>2013-07-06T16:03:57Z</time>
      </trkpt>
      <trkpt lat="49.09916" lon="7.10738">
        <ele>246</ele>
        <time>2013-07-06T16:04:01Z</time>
      </trkpt>
      <trkpt lat="49.09933" lon="7.10713">
        <ele>245.16</ele>
        <time>2013-07-06T16:04:05Z</time>
      </trkpt>
      <trkpt lat="49.09952" lon="7.10701">
        <ele>244.38</ele>
        <time>2013-07-06T16:04:08Z</time>
      </trkpt>
      <trkpt lat="49.09971" lon="7.1069">
        <ele>243.85</ele>
        <time>2013-07-06T16:04:11Z</time>
      </trkpt>
      <trkpt lat="49.09991" lon="7.10678">
        <ele>243.45</ele>
        <time>2013-07-06T16:04:14Z</time>
      </trkpt>
      <trkpt lat="49.10008" lon="7.10663">
        <ele>243.11</ele>
        <time>2013-07-06T16:04:17Z</time>
      </trkpt>
      <trkpt lat="49.10025" lon="7.10649">
        <ele>242.83</ele>
        <time>2013-07-06T16:04:20Z</time>
      </trkpt>
      <trkpt lat="49.10043" lon="7.10634">
        <ele>242.33</ele>
        <time>2013-07-06T16:04:23Z</time>
      </trkpt>
      <trkpt lat="49.10062" lon="7.10617">
        <ele>241.7</ele>
        <time>2013-07-06T16:04:26Z</time>
      </trkpt>
      <trkpt lat="49.1008" lon="7.106">
        <ele>241.15</ele>
        <time>2013-07-06T16:04:29Z</time>
      </trkpt>
      <trkpt lat="49.10099" lon="7.10582">
        <ele>240.6</ele>
        <time>2013-07-06T16:04:32Z</time>
      </trkpt>
      <trkpt lat="49.10118" lon="7.10563">
        <ele>239.8</ele>
        <time>2013-07-06T16:04:35Z</time>
      </trkpt>
      <trkpt lat="49.10138" lon="7.10544">
        <ele>238.82</ele>
        <time>2013-07-06T16:04:38Z</time>
      </trkpt>
      <trkpt lat="49.1016" lon="7.10525">
        <ele>237.87</ele>
        <time>2013-07-06T16:04:41Z</time>
      </trkpt>
      <trkpt lat="49.10182" lon="7.1051">
        <ele>237.34</ele>
        <time>2013-07-06T16:04:44Z</time>
      </trkpt>
      <trkpt lat="49.10202" lon="7.10499">
        <ele>237.49</ele>
        <time>2013-07-06T16:04:47Z</time>
      </trkpt>
      <trkpt lat="49.1022" lon="7.10491">
        <ele>238.16</ele>
        <time>2013-07-06T16:04:50Z</time>
      </trkpt>
      <trkpt lat="49.10242" lon="7.10486">
        <ele>239.54</ele>
        <time>2013-07-06T16:04:54Z</time>
      </trkpt>
      <trkpt lat="49.10263" lon="7.10485">
        <ele>241.19</ele>
        <time>2013-07-06T16:04:58Z</time>
      </trkpt>
      <trkpt lat="49.10285" lon="7.10489">
        <ele>242.69</ele>
        <time>2013-07-06T16:05:02Z</time>
      </trkpt>
      <trkpt lat="49.10307" lon="7.10494">
        <ele>243.72</ele>
        <time>2013-07-06T16:05:06Z</time>
      </trkpt>
      <trkpt lat="49.10328" lon="7.105">
        <ele>244.25</ele>
        <time>2013-07-06T16:05:10Z</time>
      </trkpt>
      <trkpt lat="49.10351" lon="7.10507">
        <ele>244.79</ele>
        <time>2013-07-06T16:05:14Z</time>
      </trkpt>
      <trkpt lat="49.10369" lon="7.10512">
        <ele>244.56</ele>
        <time>2013-07-06T16:05:17Z</time>
      </trkpt>
      <trkpt lat="49.1039" lon="7.10518">
        <ele>244.92</ele>
        <time>2013-07-06T16:05:21Z</time>
      </trkpt>
      <trkpt lat="49.1041" lon="7.10517">
        <ele>245.16</ele>
        <time>2013-07-06T16:05:25Z</time>
      </trkpt>
      <trkpt lat="49.10425" lon="7.105">
        <ele>245.14</ele>
        <time>2013-07-06T16:05:30Z</time>
      </trkpt>
      <trkpt lat="49.10444" lon="7.10509">
        <ele>245.57</ele>
        <time>2013-07-06T16:05:37Z</time>
      </trkpt>
      <trkpt lat="49.10459" lon="7.10532">
        <ele>245.88</ele>
        <time>2013-07-06T16:05:43Z</time>
      </trkpt>
      <trkpt lat="49.10479" lon="7.10538">
        <ele>245.96</ele>
        <time>2013-07-06T16:05:47Z</time>
      </trkpt>
      <trkpt lat="49.105" lon="7.10546">
        <ele>246.3</ele>
        <time>2013-07-06T16:05:51Z</time>
      </trkpt>
      <trkpt lat="49.10521" lon="7.10551">
        <ele>246.52</ele>
        <time>2013-07-06T16:05:55Z</time>
      </trkpt>
      <trkpt lat="49.10542" lon="7.10553">
        <ele>246.66</ele>
        <time>2013-07-06T16:05:59Z</time>
      </trkpt>
      <trkpt lat="49.10564" lon="7.10552">
        <ele>246.87</ele>
        <time>2013-07-06T16:06:03Z</time>
      </trkpt>
      <trkpt lat="49.10586" lon="7.10548">
        <ele>247.19</ele>
        <time>2013-07-06T16:06:07Z</time>
      </trkpt>
      <trkpt lat="49.10607" lon="7.10543">
        <ele>247.3</ele>
        <time>2013-07-06T16:06:11Z</time>
      </trkpt>
      <trkpt lat="49.10629" lon="7.10537">
        <ele>247.36</ele>
        <time>2013-07-06T16:06:15Z</time>
      </trkpt>
      <trkpt lat="49.1065" lon="7.10531">
        <ele>247.4</ele>
        <time>2013-07-06T16:06:19Z</time>
      </trkpt>
      <trkpt lat="49.10671" lon="7.10524">
        <ele>247.63</ele>
        <time>2013-07-06T16:06:23Z</time>
      </trkpt>
      <trkpt lat="49.10692" lon="7.10516">
        <ele>247.67</ele>
        <time>2013-07-06T16:06:27Z</time>
      </trkpt>
      <trkpt lat="49.10713" lon="7.10505">
        <ele>247.31</ele>
        <time>2013-07-06T16:06:31Z</time>
      </trkpt>
      <trkpt lat="49.10735" lon="7.10493">
        <ele>246.41</ele>
        <time>2013-07-06T16:06:35Z</time>
      </trkpt>
      <trkpt lat="49.10756" lon="7.10479">
        <ele>245.71</ele>
        <time>2013-07-06T16:06:39Z</time>
      </trkpt>
      <trkpt lat="49.10775" lon="7.10474">
        <ele>244.97</ele>
        <time>2013-07-06T16:06:45Z</time>
      </trkpt>
      <trkpt lat="49.10793" lon="7.10463">
        <ele>244.31</ele>
        <time>2013-07-06T16:06:49Z</time>
      </trkpt>
      <trkpt lat="49.10807" lon="7.10435">
        <ele>243.51</ele>
        <time>2013-07-06T16:06:53Z</time>
      </trkpt>
      <trkpt lat="49.10822" lon="7.10418">
        <ele>243.12</ele>
        <time>2013-07-06T16:06:56Z</time>
      </trkpt>
      <trkpt lat="49.10838" lon="7.10394">
        <ele>242.74</ele>
        <time>2013-07-06T16:07:00Z</time>
      </trkpt>
      <trkpt lat="49.10853" lon="7.10371">
        <ele>242.54</ele>
        <time>2013-07-06T16:07:04Z</time>
      </trkpt>
      <trkpt lat="49.10864" lon="7.10348">
        <ele>242.29</ele>
        <time>2013-07-06T16:07:07Z</time>
      </trkpt>
      <trkpt lat="49.10876" lon="7.10324">
        <ele>242.11</ele>
        <time>2013-07-06T16:07:10Z</time>
      </trkpt>
      <trkpt lat="49.10888" lon="7.10299">
        <ele>242.04</ele>
        <time>2013-07-06T16:07:13Z</time>
      </trkpt>
      <trkpt lat="49.10901" lon="7.10276">
        <ele>242.03</ele>
        <time>2013-07-06T16:07:16Z</time>
      </trkpt>
      <trkpt lat="49.10913" lon="7.10252">
        <ele>241.96</ele>
        <time>2013-07-06T16:07:19Z</time>
      </trkpt>
      <trkpt lat="49.10926" lon="7.10228">
        <ele>241.81</ele>
        <time>2013-07-06T16:07:22Z</time>
      </trkpt>
      <trkpt lat="49.10939" lon="7.10205">
        <ele>241.74</ele>
        <time>2013-07-06T16:07:25Z</time>
      </trkpt>
      <trkpt lat="49.10951" lon="7.10181">
        <ele>241.58</ele>
        <time>2013-07-06T16:07:28Z</time>
      </trkpt>
      <trkpt lat="49.10965" lon="7.10159">
        <ele>241.33</ele>
        <time>2013-07-06T16:07:31Z</time>
      </trkpt>
      <trkpt lat="49.10981" lon="7.10144">
        <ele>241.15</ele>
        <time>2013-07-06T16:07:34Z</time>
      </trkpt>
      <trkpt lat="49.11" lon="7.1013">
        <ele>240.87</ele>
        <time>2013-07-06T16:07:37Z</time>
      </trkpt>
      <trkpt lat="49.11019" lon="7.10116">
        <ele>240.65</ele>
        <time>2013-07-06T16:07:40Z</time>
      </trkpt>
      <trkpt lat="49.11037" lon="7.10102">
        <ele>240.47</ele>
        <time>2013-07-06T16:07:43Z</time>
      </trkpt>
      <trkpt lat="49.11055" lon="7.1009">
        <ele>240.3</ele>
        <time>2013-07-06T16:07:46Z</time>
      </trkpt>
      <trkpt lat="49.11073" lon="7.10077">
        <ele>240.28</ele>
        <time>2013-07-06T16:07:49Z</time>
      </trkpt>
      <trkpt lat="49.1109" lon="7.10064">
        <ele>240.41</ele>
        <time>2013-07-06T16:07:52Z</time>
      </trkpt>
      <trkpt lat="49.11111" lon="7.10048">
        <ele>240.72</ele>
        <time>2013-07-06T16:07:56Z</time>
      </trkpt>
      <trkpt lat="49.11132" lon="7.10031">
        <ele>241.05</ele>
        <time>2013-07-06T16:08:00Z</time>
      </trkpt>
      <trkpt lat="49.11149" lon="7.10021">
        <ele>241.07</ele>
        <time>2013-07-06T16:08:03Z</time>
      </trkpt>
      <trkpt lat="49.11167" lon="7.1001">
        <ele>240.92</ele>
        <time>2013-07-06T16:08:06Z</time>
      </trkpt>
      <trkpt lat="49.11184" lon="7.09998">
        <ele>240.82</ele>
        <time>2013-07-06T16:08:09Z</time>
      </trkpt>
      <trkpt lat="49.11206" lon="7.09987">
        <ele>240.87</ele>
        <time>2013-07-06T16:08:13Z</time>
      </trkpt>
      <trkpt lat="49.11225" lon="7.09972">
        <ele>240.97</ele>
        <time>2013-07-06T16:08:17Z</time>
      </trkpt>
      <trkpt lat="49.11246" lon="7.09958">
        <ele>240.91</ele>
        <time>2013-07-06T16:08:21Z</time>
      </trkpt>
      <trkpt lat="49.11267" lon="7.09942">
        <ele>240.77</ele>
        <time>2013-07-06T16:08:25Z</time>
      </trkpt>
      <trkpt lat="49.11289" lon="7.0993">
        <ele>240.51</ele>
        <time>2013-07-06T16:08:29Z</time>
      </trkpt>
      <trkpt lat="49.1131" lon="7.09919">
        <ele>240.36</ele>
        <time>2013-07-06T16:08:33Z</time>
      </trkpt>
      <trkpt lat="49.1133" lon="7.09908">
        <ele>240.25</ele>
        <time>2013-07-06T16:08:37Z</time>
      </trkpt>
      <trkpt lat="49.11341" lon="7.09882">
        <ele>240.07</ele>
        <time>2013-07-06T16:08:41Z</time>
      </trkpt>
      <trkpt lat="49.11345" lon="7.09855">
        <ele>239.94</ele>
        <time>2013-07-06T16:08:45Z</time>
      </trkpt>
      <trkpt lat="49.11352" lon="7.09829">
        <ele>239.39</ele>
        <time>2013-07-06T16:08:52Z</time>
      </trkpt>
      <trkpt lat="49.11373" lon="7.09832">
        <ele>239.19</ele>
        <time>2013-07-06T16:08:59Z</time>
      </trkpt>
      <trkpt lat="49.11392" lon="7.09837">
        <ele>238.85</ele>
        <time>2013-07-06T16:09:03Z</time>
      </trkpt>
      <trkpt lat="49.11411" lon="7.09848">
        <ele>238.49</ele>
        <time>2013-07-06T16:09:07Z</time>
      </trkpt>
      <trkpt lat="49.11426" lon="7.09831">
        <ele>238.22</ele>
        <time>2013-07-06T16:09:11Z</time>
      </trkpt>
      <trkpt lat="49.11418" lon="7.098">
        <ele>238.17</ele>
        <time>2013-07-06T16:09:15Z</time>
      </trkpt>
      <trkpt lat="49.11403" lon="7.09784">
        <ele>238.11</ele>
        <time>2013-07-06T16:09:18Z</time>
      </trkpt>
      <trkpt lat="49.11388" lon="7.09766">
        <ele>237.91</ele>
        <time>2013-07-06T16:09:21Z</time>
      </trkpt>
      <trkpt lat="49.11374" lon="7.09744">
        <ele>237.74</ele>
        <time>2013-07-06T16:09:24Z</time>
      </trkpt>
      <trkpt lat="49.11364" lon="7.09719">
        <ele>237.48</ele>
        <time>2013-07-06T16:09:27Z</time>
      </trkpt>
      <trkpt lat="49.11358" lon="7.09689">
        <ele>237.18</ele>
        <time>2013-07-06T16:09:30Z</time>
      </trkpt>
      <trkpt lat="49.11353" lon="7.09658">
        <ele>236.88</ele>
        <time>2013-07-06T16:09:33Z</time>
      </trkpt>
      <trkpt lat="49.11349" lon="7.09625">
        <ele>236.32</ele>
        <time>2013-07-06T16:09:36Z</time>
      </trkpt>
      <trkpt lat="49.11352" lon="7.09591">
        <ele>235.79</ele>
        <time>2013-07-06T16:09:39Z</time>
      </trkpt>
      <trkpt lat="49.11354" lon="7.09555">
        <ele>234.99</ele>
        <time>2013-07-06T16:09:42Z</time>
      </trkpt>
      <trkpt lat="49.11356" lon="7.09519">
        <ele>234.19</ele>
        <time>2013-07-06T16:09:45Z</time>
      </trkpt>
      <trkpt lat="49.11358" lon="7.09484">
        <ele>233.3</ele>
        <time>2013-07-06T16:09:48Z</time>
      </trkpt>
      <trkpt lat="49.11365" lon="7.0945">
        <ele>232.49</ele>
        <time>2013-07-06T16:09:51Z</time>
      </trkpt>
      <trkpt lat="49.11374" lon="7.09418">
        <ele>231.77</ele>
        <time>2013-07-06T16:09:54Z</time>
      </trkpt>
      <trkpt lat="49.11382" lon="7.09388">
        <ele>231.27</ele>
        <time>2013-07-06T16:09:57Z</time>
      </trkpt>
      <trkpt lat="49.1139" lon="7.09361">
        <ele>231.04</ele>
        <time>2013-07-06T16:10:00Z</time>
      </trkpt>
      <trkpt lat="49.11398" lon="7.09334">
        <ele>231</ele>
        <time>2013-07-06T16:10:03Z</time>
      </trkpt>
      <trkpt lat="49.11405" lon="7.09309">
        <ele>230.91</ele>
        <time>2013-07-06T16:10:06Z</time>
      </trkpt>
      <trkpt lat="49.11422" lon="7.09285">
        <ele>230.74</ele>
        <time>2013-07-06T16:10:10Z</time>
      </trkpt>
      <trkpt lat="49.11441" lon="7.0927">
        <ele>230.55</ele>
        <time>2013-07-06T16:10:14Z</time>
      </trkpt>
      <trkpt lat="49.11451" lon="7.09245">
        <ele>230.45</ele>
        <time>2013-07-06T16:10:18Z</time>
      </trkpt>
      <trkpt lat="49.11457" lon="7.09218">
        <ele>229.76</ele>
        <time>2013-07-06T16:10:35Z</time>
      </trkpt>
      <trkpt lat="49.11459" lon="7.0919">
        <ele>228.87</ele>
        <time>2013-07-06T16:10:54Z</time>
      </trkpt>
      <trkpt lat="49.11444" lon="7.09168">
        <ele>229.9</ele>
        <time>2013-07-06T16:10:58Z</time>
      </trkpt>
      <trkpt lat="49.11429" lon="7.09152">
        <ele>231.4</ele>
        <time>2013-07-06T16:11:02Z</time>
      </trkpt>
      <trkpt lat="49.11411" lon="7.09134">
        <ele>232.43</ele>
        <time>2013-07-06T16:11:06Z</time>
      </trkpt>
      <trkpt lat="49.11393" lon="7.09116">
        <ele>233.26</ele>
        <time>2013-07-06T16:11:10Z</time>
      </trkpt>
      <trkpt lat="49.11378" lon="7.09095">
        <ele>232.99</ele>
        <time>2013-07-06T16:11:19Z</time>
      </trkpt>
      <trkpt lat="49.11357" lon="7.09084">
        <ele>232.58</ele>
        <time>2013-07-06T16:11:26Z</time>
      </trkpt>
      <trkpt lat="49.11341" lon="7.09061">
        <ele>232.21</ele>
        <time>2013-07-06T16:11:30Z</time>
      </trkpt>
      <trkpt lat="49.11327" lon="7.09042">
        <ele>231.51</ele>
        <time>2013-07-06T16:11:33Z</time>
      </trkpt>
      <trkpt lat="49.11314" lon="7.09021">
        <ele>231</ele>
        <time>2013-07-06T16:11:36Z</time>
      </trkpt>
      <trkpt lat="49.113" lon="7.09">
        <ele>229.88</ele>
        <time>2013-07-06T16:11:47Z</time>
      </trkpt>
    </trkseg>
  </trk>
</gpx>